Wetterdaten: Donnerstag, 09.09.2010
Datum Zeit Temp. Innen Temp. Aussen UV X Diff Temp. Feuchte Inne Feuchte Auss Sonnenschein Luftdruck Regen ab 0,1 Wind Sonnenschein T Regendauer Windben
09.09.2010 00:00 20,4 C 15,1 C 0,0 UV-I 0,0 C 63 % 86 % 0 % 1004,2 hPa 0,0 l/m 1,6 km/h (1 Bft) 0 min 0 min 0,0 km/h (0 Bft)
09.09.2010 00:02 20,4 C 15,0 C 0,0 UV-I 0,0 C 63 % 86 % 0 % 1004,2 hPa 0,0 l/m 2,0 km/h (1 Bft) 0 min 0 min 3,2 km/h (1 Bft)
09.09.2010 00:04 20,4 C 15,1 C 0,0 UV-I 0,0 C 63 % 86 % 0 % 1004,2 hPa 0,0 l/m 2,0 km/h (1 Bft) 0 min 0 min 6,4 km/h (2 Bft)
09.09.2010 00:06 20,4 C 15,1 C 0,0 UV-I 0,0 C 63 % 86 % 0 % 1004,7 hPa 0,0 l/m 2,8 km/h (1 Bft) 0 min 0 min 7,4 km/h (2 Bft)
09.09.2010 00:08 20,4 C 15,0 C 0,0 UV-I 0,0 C 63 % 86 % 0 % 1004,7 hPa 0,0 l/m 2,8 km/h (1 Bft) 0 min 0 min 7,4 km/h (2 Bft)
09.09.2010 00:10 20,4 C 15,1 C 0,0 UV-I 0,0 C 63 % 86 % 0 % 1004,7 hPa 0,0 l/m 3,2 km/h (1 Bft) 0 min 0 min 0,0 km/h (0 Bft)
09.09.2010 00:12 20,4 C 15,1 C 0,0 UV-I 0,0 C 63 % 86 % 0 % 1004,7 hPa 0,0 l/m 2,4 km/h (1 Bft) 0 min 0 min 0,0 km/h (0 Bft)
09.09.2010 00:14 20,4 C 15,1 C 0,0 UV-I 0,0 C 63 % 86 % 0 % 1004,7 hPa 0,0 l/m 2,4 km/h (1 Bft) 0 min 0 min 7,4 km/h (2 Bft)
09.09.2010 00:16 20,4 C 15,1 C 0,0 UV-I 0,0 C 63 % 86 % 0 % 1004,7 hPa 0,0 l/m 1,2 km/h (1 Bft) 0 min 0 min 3,2 km/h (1 Bft)
09.09.2010 00:18 20,4 C 15,1 C 0,0 UV-I 0,0 C 63 % 86 % 0 % 1004,7 hPa 0,0 l/m 0,4 km/h (0 Bft) 0 min 0 min 0,0 km/h (0 Bft)
09.09.2010 00:20 20,4 C 15,0 C 0,0 UV-I 0,0 C 63 % 86 % 0 % 1004,7 hPa 0,0 l/m 0,0 km/h (0 Bft) 0 min 0 min 0,0 km/h (0 Bft)
09.09.2010 00:22 20,4 C 15,1 C 0,0 UV-I 0,0 C 63 % 86 % 0 % 1004,7 hPa 0,0 l/m 0,0 km/h (0 Bft) 0 min 0 min 0,0 km/h (0 Bft)
09.09.2010 00:24 20,4 C 15,1 C 0,0 UV-I 0,0 C 63 % 86 % 0 % 1004,7 hPa 0,0 l/m 0,4 km/h (0 Bft) 0 min 0 min 0,0 km/h (0 Bft)
09.09.2010 00:26 20,4 C 14,9 C 0,0 UV-I 0,0 C 63 % 85 % 0 % 1004,8 hPa 0,0 l/m 0,0 km/h (0 Bft) 0 min 0 min 0,0 km/h (0 Bft)
09.09.2010 00:28 20,4 C 14,9 C 0,0 UV-I 0,0 C 63 % 86 % 0 % 1004,8 hPa 0,0 l/m 0,0 km/h (0 Bft) 0 min 0 min 0,0 km/h (0 Bft)
09.09.2010 00:30 20,4 C 14,8 C 0,0 UV-I 0,0 C 63 % 86 % 0 % 1004,8 hPa 0,0 l/m 0,0 km/h (0 Bft) 0 min 0 min 0,0 km/h (0 Bft)
09.09.2010 00:32 20,4 C 14,9 C 0,0 UV-I 0,0 C 63 % 86 % 0 % 1004,8 hPa 0,0 l/m 0,0 km/h (0 Bft) 0 min 0 min 0,0 km/h (0 Bft)
09.09.2010 00:34 20,4 C 14,9 C 0,1 UV-I 0,0 C 63 % 86 % 0 % 1004,8 hPa 0,0 l/m 0,0 km/h (0 Bft) 0 min 0 min 0,0 km/h (0 Bft)
09.09.2010 00:36 20,4 C 14,8 C 0,1 UV-I 0,0 C 63 % 86 % 0 % 1004,8 hPa 0,0 l/m 0,0 km/h (0 Bft) 0 min 0 min 0,0 km/h (0 Bft)
09.09.2010 00:38 20,4 C 14,7 C 0,1 UV-I 0,0 C 63 % 86 % 0 % 1004,8 hPa 0,0 l/m 0,0 km/h (0 Bft) 0 min 0 min 0,0 km/h (0 Bft)
09.09.2010 00:40 20,4 C 14,7 C 0,1 UV-I 0,0 C 63 % 86 % 0 % 1004,8 hPa 0,0 l/m 0,0 km/h (0 Bft) 0 min 0 min 0,0 km/h (0 Bft)
09.09.2010 00:44 20,4 C 14,7 C 0,1 UV-I 0,0 C 63 % 86 % 0 % 1004,8 hPa 0,0 l/m 0,0 km/h (0 Bft) 0 min 0 min 0,0 km/h (0 Bft)
09.09.2010 00:46 20,4 C 14,6 C 0,1 UV-I 0,0 C 63 % 86 % 0 % 1004,7 hPa 0,0 l/m 0,0 km/h (0 Bft) 0 min 0 min 0,0 km/h (0 Bft)
09.09.2010 00:48 20,4 C 14,5 C 0,1 UV-I 0,0 C 63 % 86 % 0 % 1004,7 hPa 0,0 l/m 0,0 km/h (0 Bft) 0 min 0 min 0,0 km/h (0 Bft)
09.09.2010 00:50 20,4 C 14,5 C 0,1 UV-I 0,0 C 63 % 86 % 0 % 1004,7 hPa 0,0 l/m 0,0 km/h (0 Bft) 0 min 0 min 0,0 km/h (0 Bft)
09.09.2010 00:52 20,4 C 14,4 C 0,1 UV-I 0,0 C 63 % 86 % 0 % 1004,7 hPa 0,0 l/m 0,0 km/h (0 Bft) 0 min 0 min 0,0 km/h (0 Bft)
09.09.2010 00:54 20,4 C 14,4 C 0,0 UV-I 0,0 C 63 % 86 % 0 % 1004,7 hPa 0,0 l/m 0,0 km/h (0 Bft) 0 min 0 min 0,0 km/h (0 Bft)
09.09.2010 00:56 20,4 C 14,4 C 0,0 UV-I 0,0 C 63 % 86 % 0 % 1004,7 hPa 0,0 l/m 0,0 km/h (0 Bft) 0 min 0 min 0,0 km/h (0 Bft)
09.09.2010 00:58 20,4 C 14,3 C 0,0 UV-I 0,0 C 63 % 86 % 0 % 1004,7 hPa 0,0 l/m 0,0 km/h (0 Bft) 0 min 0 min 0,0 km/h (0 Bft)
09.09.2010 01:00 20,4 C 14,3 C 0,0 UV-I 0,0 C 63 % 86 % 0 % 1004,7 hPa 0,0 l/m 0,0 km/h (0 Bft) 0 min 0 min 0,0 km/h (0 Bft)
09.09.2010 01:04 20,4 C 14,3 C 0,0 UV-I 0,0 C 63 % 86 % 0 % 1004,7 hPa 0,0 l/m 0,0 km/h (0 Bft) 0 min 0 min 0,0 km/h (0 Bft)
09.09.2010 01:06 20,4 C 14,2 C 0,0 UV-I 0,0 C 63 % 87 % 0 % 1004,9 hPa 0,0 l/m 0,0 km/h (0 Bft) 0 min 0 min 0,0 km/h (0 Bft)
09.09.2010 01:08 20,4 C 14,1 C 0,1 UV-I 0,0 C 63 % 87 % 0 % 1004,9 hPa 0,0 l/m 0,0 km/h (0 Bft) 0 min 0 min 0,0 km/h (0 Bft)
09.09.2010 01:10 20,4 C 14,0 C 0,1 UV-I 0,0 C 63 % 87 % 0 % 1004,9 hPa 0,0 l/m 0,0 km/h (0 Bft) 0 min 0 min 0,0 km/h (0 Bft)
09.09.2010 01:12 20,4 C 14,0 C 0,1 UV-I 0,0 C 63 % 87 % 0 % 1004,9 hPa 0,0 l/m 0,0 km/h (0 Bft) 0 min 0 min 0,0 km/h (0 Bft)
09.09.2010 01:14 20,4 C 14,0 C 0,1 UV-I 0,0 C 63 % 87 % 0 % 1004,9 hPa 0,0 l/m 0,0 km/h (0 Bft) 0 min 0 min 0,0 km/h (0 Bft)
09.09.2010 01:18 20,2 C 13,9 C 0,1 UV-I 0,0 C 63 % 87 % 0 % 1004,9 hPa 0,0 l/m 0,0 km/h (0 Bft) 0 min 0 min 0,0 km/h (0 Bft)
09.09.2010 01:20 20,4 C 13,9 C 0,1 UV-I 0,0 C 63 % 88 % 0 % 1004,9 hPa 0,0 l/m 0,0 km/h (0 Bft) 0 min 0 min 0,0 km/h (0 Bft)
09.09.2010 01:22 20,4 C 13,9 C 0,1 UV-I 0,0 C 63 % 88 % 0 % 1004,9 hPa 0,0 l/m 0,0 km/h (0 Bft) 0 min 0 min 0,0 km/h (0 Bft)
09.09.2010 01:24 20,2 C 13,9 C 0,1 UV-I 0,0 C 63 % 88 % 0 % 1004,9 hPa 0,0 l/m 0,0 km/h (0 Bft) 0 min 0 min 0,0 km/h (0 Bft)
09.09.2010 01:26 20,2 C 14,0 C 0,1 UV-I 0,0 C 63 % 88 % 0 % 1005,1 hPa 0,0 l/m 0,0 km/h (0 Bft) 0 min 0 min 0,0 km/h (0 Bft)
09.09.2010 01:28 20,2 C 14,0 C 0,1 UV-I 0,0 C 63 % 89 % 0 % 1005,1 hPa 0,0 l/m 0,0 km/h (0 Bft) 0 min 0 min 0,0 km/h (0 Bft)
09.09.2010 01:30 20,2 C 14,1 C 0,1 UV-I 0,0 C 63 % 89 % 0 % 1005,1 hPa 0,0 l/m 0,4 km/h (0 Bft) 0 min 0 min 0,0 km/h (0 Bft)
09.09.2010 01:32 20,2 C 14,1 C 0,1 UV-I 0,0 C 63 % 89 % 0 % 1005,1 hPa 0,0 l/m 0,4 km/h (0 Bft) 0 min 0 min 0,0 km/h (0 Bft)
09.09.2010 01:34 20,2 C 14,0 C 0,1 UV-I 0,0 C 63 % 89 % 0 % 1005,1 hPa 0,0 l/m 0,4 km/h (0 Bft) 0 min 0 min 0,0 km/h (0 Bft)
09.09.2010 01:36 20,3 C 14,1 C 0,1 UV-I 0,0 C 63 % 89 % 0 % 1005,1 hPa 0,0 l/m 0,8 km/h (0 Bft) 0 min 0 min 0,0 km/h (0 Bft)
09.09.2010 01:40 20,3 C 14,1 C 0,1 UV-I 0,0 C 63 % 89 % 0 % 1005,1 hPa 0,0 l/m 0,8 km/h (0 Bft) 0 min 0 min 0,0 km/h (0 Bft)
09.09.2010 01:44 20,3 C 14,2 C 0,1 UV-I 0,0 C 63 % 89 % 0 % 1005,1 hPa 0,0 l/m 1,2 km/h (1 Bft) 0 min 0 min 3,5 km/h (1 Bft)
09.09.2010 01:48 20,3 C 14,3 C 0,1 UV-I 0,0 C 63 % 89 % 0 % 1005,2 hPa 0,0 l/m 0,8 km/h (0 Bft) 0 min 0 min 3,9 km/h (1 Bft)
09.09.2010 01:50 20,3 C 14,3 C 0,1 UV-I 0,0 C 63 % 89 % 0 % 1005,2 hPa 0,0 l/m 0,8 km/h (0 Bft) 0 min 0 min 0,0 km/h (0 Bft)
09.09.2010 01:52 20,3 C 14,4 C 0,1 UV-I 0,0 C 63 % 89 % 0 % 1005,2 hPa 0,0 l/m 0,4 km/h (0 Bft) 0 min 0 min 0,0 km/h (0 Bft)
09.09.2010 01:54 20,3 C 14,4 C 0,1 UV-I 0,0 C 63 % 89 % 0 % 1005,2 hPa 0,0 l/m 0,4 km/h (0 Bft) 0 min 0 min 0,0 km/h (0 Bft)
09.09.2010 01:56 20,3 C 14,4 C 0,1 UV-I 0,0 C 63 % 89 % 0 % 1005,2 hPa 0,0 l/m 0,4 km/h (0 Bft) 0 min 0 min 0,0 km/h (0 Bft)
09.09.2010 01:58 20,3 C 14,4 C 0,1 UV-I 0,0 C 63 % 89 % 0 % 1005,2 hPa 0,0 l/m 0,0 km/h (0 Bft) 0 min 0 min 0,0 km/h (0 Bft)
09.09.2010 02:00 20,3 C 14,5 C 0,1 UV-I 0,0 C 63 % 89 % 0 % 1005,2 hPa 0,0 l/m 0,0 km/h (0 Bft) 0 min 0 min 0,0 km/h (0 Bft)
09.09.2010 02:02 20,3 C 14,4 C 0,1 UV-I 0,0 C 63 % 89 % 0 % 1005,2 hPa 0,0 l/m 0,4 km/h (0 Bft) 0 min 0 min 3,5 km/h (1 Bft)
09.09.2010 02:04 20,3 C 14,4 C 0,1 UV-I 0,0 C 63 % 89 % 0 % 1005,2 hPa 0,0 l/m 1,2 km/h (1 Bft) 0 min 0 min 5,5 km/h (1 Bft)
09.09.2010 02:06 20,3 C 14,5 C 0,1 UV-I 0,0 C 63 % 89 % 0 % 1005,4 hPa 0,0 l/m 1,6 km/h (1 Bft) 0 min 0 min 5,5 km/h (1 Bft)
09.09.2010 02:12 20,3 C 14,6 C 0,1 UV-I 0,0 C 63 % 89 % 0 % 1005,4 hPa 0,0 l/m 2,0 km/h (1 Bft) 0 min 0 min 0,0 km/h (0 Bft)
09.09.2010 02:14 20,3 C 14,7 C 0,1 UV-I 0,0 C 63 % 89 % 0 % 1005,4 hPa 0,0 l/m 1,6 km/h (1 Bft) 0 min 0 min 9,3 km/h (2 Bft)
09.09.2010 02:16 20,3 C 14,7 C 0,1 UV-I 0,0 C 63 % 89 % 0 % 1005,4 hPa 0,0 l/m 0,8 km/h (0 Bft) 0 min 0 min 0,0 km/h (0 Bft)
09.09.2010 02:20 20,2 C 14,7 C 0,1 UV-I 0,0 C 63 % 88 % 0 % 1005,4 hPa 0,0 l/m 0,4 km/h (0 Bft) 0 min 0 min 0,0 km/h (0 Bft)
09.09.2010 02:22 20,3 C 14,7 C 0,1 UV-I 0,0 C 63 % 88 % 0 % 1005,4 hPa 0,0 l/m 0,4 km/h (0 Bft) 0 min 0 min 0,0 km/h (0 Bft)
09.09.2010 02:24 20,2 C 14,7 C 0,0 UV-I 0,0 C 63 % 88 % 0 % 1005,4 hPa 0,0 l/m 0,4 km/h (0 Bft) 0 min 0 min 0,0 km/h (0 Bft)
09.09.2010 02:26 20,3 C 14,7 C 0,0 UV-I 0,0 C 63 % 88 % 0 % 1005,7 hPa 0,0 l/m 0,0 km/h (0 Bft) 0 min 0 min 0,0 km/h (0 Bft)
09.09.2010 02:28 20,2 C 14,7 C 0,0 UV-I 0,0 C 63 % 88 % 0 % 1005,7 hPa 0,0 l/m 0,4 km/h (0 Bft) 0 min 0 min 4,8 km/h (1 Bft)
09.09.2010 02:32 20,3 C 14,5 C 0,0 UV-I 0,0 C 63 % 88 % 0 % 1005,7 hPa 0,0 l/m 0,4 km/h (0 Bft) 0 min 0 min 4,8 km/h (1 Bft)
09.09.2010 02:34 20,3 C 14,5 C 0,1 UV-I 0,0 C 63 % 88 % 0 % 1005,7 hPa 0,0 l/m 0,8 km/h (0 Bft) 0 min 0 min 4,8 km/h (1 Bft)
09.09.2010 02:36 20,3 C 14,5 C 0,1 UV-I 0,0 C 63 % 88 % 0 % 1005,7 hPa 0,0 l/m 0,8 km/h (0 Bft) 0 min 0 min 4,8 km/h (1 Bft)
09.09.2010 02:38 20,3 C 14,5 C 0,0 UV-I 0,0 C 63 % 88 % 0 % 1005,7 hPa 0,0 l/m 0,4 km/h (0 Bft) 0 min 0 min 0,0 km/h (0 Bft)
09.09.2010 02:46 20,2 C 14,4 C 0,0 UV-I 0,0 C 63 % 88 % 0 % 1005,7 hPa 0,0 l/m 0,0 km/h (0 Bft) 0 min 0 min 0,0 km/h (0 Bft)
09.09.2010 02:50 20,2 C 14,3 C 0,0 UV-I 0,0 C 63 % 88 % 0 % 1005,7 hPa 0,0 l/m 0,0 km/h (0 Bft) 0 min 0 min 0,0 km/h (0 Bft)
09.09.2010 02:52 20,2 C 14,2 C 0,0 UV-I 0,0 C 63 % 88 % 0 % 1005,7 hPa 0,0 l/m 0,0 km/h (0 Bft) 0 min 0 min 0,0 km/h (0 Bft)
09.09.2010 02:54 20,2 C 14,3 C 0,0 UV-I 0,0 C 63 % 88 % 0 % 1005,7 hPa 0,0 l/m 0,0 km/h (0 Bft) 0 min 0 min 0,0 km/h (0 Bft)
09.09.2010 02:56 20,2 C 14,2 C 0,0 UV-I 0,0 C 63 % 88 % 0 % 1005,7 hPa 0,0 l/m 0,0 km/h (0 Bft) 0 min 0 min 0,0 km/h (0 Bft)
09.09.2010 02:58 20,2 C 14,1 C 0,0 UV-I 0,0 C 63 % 88 % 0 % 1005,7 hPa 0,0 l/m 0,0 km/h (0 Bft) 0 min 0 min 0,0 km/h (0 Bft)
09.09.2010 03:00 20,2 C 14,1 C 0,0 UV-I 0,0 C 63 % 88 % 0 % 1005,7 hPa 0,0 l/m 0,0 km/h (0 Bft) 0 min 0 min 0,0 km/h (0 Bft)
09.09.2010 03:03 20,2 C 14,1 C 0,0 UV-I 0,0 C 63 % 88 % 0 % 1005,7 hPa 0,0 l/m 0,0 km/h (0 Bft) 0 min 0 min 0,0 km/h (0 Bft)
09.09.2010 03:06 20,2 C 14,0 C 0,0 UV-I 0,0 C 63 % 88 % 0 % 1005,8 hPa 0,0 l/m 0,0 km/h (0 Bft) 0 min 0 min 0,0 km/h (0 Bft)
09.09.2010 03:08 20,2 C 14,0 C 0,0 UV-I 0,0 C 63 % 89 % 0 % 1005,8 hPa 0,0 l/m 0,0 km/h (0 Bft) 0 min 0 min 0,0 km/h (0 Bft)
09.09.2010 03:12 20,2 C 14,0 C 0,0 UV-I 0,0 C 63 % 89 % 0 % 1005,8 hPa 0,0 l/m 0,0 km/h (0 Bft) 0 min 0 min 0,0 km/h (0 Bft)
09.09.2010 03:14 20,2 C 14,0 C 0,0 UV-I 0,0 C 63 % 89 % 0 % 1005,8 hPa 0,0 l/m 0,0 km/h (0 Bft) 0 min 0 min 0,0 km/h (0 Bft)
09.09.2010 03:16 20,2 C 14,0 C 0,0 UV-I 0,0 C 63 % 89 % 0 % 1005,8 hPa 0,0 l/m 0,4 km/h (0 Bft) 0 min 0 min 0,0 km/h (0 Bft)
09.09.2010 03:18 20,2 C 14,0 C 0,0 UV-I 0,0 C 63 % 89 % 0 % 1005,8 hPa 0,0 l/m 0,4 km/h (0 Bft) 0 min 0 min 0,0 km/h (0 Bft)
09.09.2010 03:20 20,2 C 14,0 C 0,0 UV-I 0,0 C 63 % 89 % 0 % 1005,8 hPa 0,0 l/m 0,4 km/h (0 Bft) 0 min 0 min 0,0 km/h (0 Bft)
09.09.2010 03:22 20,2 C 14,0 C 0,0 UV-I 0,0 C 63 % 89 % 0 % 1005,8 hPa 0,0 l/m 0,4 km/h (0 Bft) 0 min 0 min 0,0 km/h (0 Bft)
09.09.2010 03:26 20,2 C 14,0 C 0,0 UV-I 0,0 C 63 % 89 % 0 % 1006,1 hPa 0,0 l/m 0,4 km/h (0 Bft) 0 min 0 min 0,0 km/h (0 Bft)
09.09.2010 03:30 20,2 C 14,0 C 0,0 UV-I 0,0 C 63 % 89 % 0 % 1006,1 hPa 0,0 l/m 0,0 km/h (0 Bft) 0 min 0 min 0,0 km/h (0 Bft)
09.09.2010 03:34 20,2 C 14,0 C 0,0 UV-I 0,0 C 63 % 89 % 0 % 1006,1 hPa 0,0 l/m 0,4 km/h (0 Bft) 0 min 0 min 0,0 km/h (0 Bft)
09.09.2010 03:44 20,2 C 14,1 C 0,0 UV-I 0,0 C 63 % 89 % 0 % 1006,1 hPa 0,0 l/m 0,8 km/h (0 Bft) 0 min 0 min 3,5 km/h (1 Bft)
09.09.2010 03:46 20,2 C 14,1 C 0,0 UV-I 0,0 C 63 % 89 % 0 % 1005,9 hPa 0,0 l/m 0,8 km/h (0 Bft) 0 min 0 min 0,0 km/h (0 Bft)
09.09.2010 03:52 20,1 C 14,2 C 0,0 UV-I 0,0 C 63 % 89 % 0 % 1005,9 hPa 0,0 l/m 1,2 km/h (1 Bft) 0 min 0 min 0,0 km/h (0 Bft)
09.09.2010 03:54 20,1 C 14,2 C 0,0 UV-I 0,0 C 63 % 89 % 0 % 1005,9 hPa 0,0 l/m 0,4 km/h (0 Bft) 0 min 0 min 0,0 km/h (0 Bft)
09.09.2010 03:56 20,1 C 14,2 C 0,0 UV-I 0,0 C 63 % 89 % 0 % 1005,9 hPa 0,0 l/m 0,8 km/h (0 Bft) 0 min 0 min 0,0 km/h (0 Bft)
09.09.2010 04:00 20,1 C 14,2 C 0,0 UV-I 0,0 C 63 % 89 % 0 % 1005,9 hPa 0,0 l/m 0,8 km/h (0 Bft) 0 min 0 min 0,0 km/h (0 Bft)
09.09.2010 04:06 20,1 C 14,1 C 0,0 UV-I 0,0 C 63 % 89 % 0 % 1006,4 hPa 0,0 l/m 0,4 km/h (0 Bft) 0 min 0 min 0,0 km/h (0 Bft)
09.09.2010 04:12 20,1 C 14,1 C 0,0 UV-I 0,0 C 63 % 89 % 0 % 1006,4 hPa 0,0 l/m 0,0 km/h (0 Bft) 0 min 0 min 0,0 km/h (0 Bft)
09.09.2010 04:16 20,0 C 14,1 C 0,0 UV-I 0,0 C 63 % 90 % 0 % 1006,4 hPa 0,0 l/m 0,4 km/h (0 Bft) 0 min 0 min 3,5 km/h (1 Bft)
09.09.2010 04:18 20,0 C 14,1 C 0,0 UV-I 0,0 C 63 % 90 % 0 % 1006,4 hPa 0,0 l/m 0,4 km/h (0 Bft) 0 min 0 min 3,5 km/h (1 Bft)
09.09.2010 04:20 20,0 C 14,1 C 0,0 UV-I 0,0 C 63 % 90 % 0 % 1006,4 hPa 0,0 l/m 0,8 km/h (0 Bft) 0 min 0 min 6,8 km/h (2 Bft)
09.09.2010 04:22 20,0 C 14,2 C 0,0 UV-I 0,0 C 63 % 90 % 0 % 1006,4 hPa 0,0 l/m 1,2 km/h (1 Bft) 0 min 0 min 6,8 km/h (2 Bft)
09.09.2010 04:24 20,0 C 14,3 C 0,0 UV-I 0,0 C 63 % 90 % 0 % 1006,4 hPa 0,0 l/m 1,2 km/h (1 Bft) 0 min 0 min 0,0 km/h (0 Bft)
09.09.2010 04:30 20,0 C 14,3 C 0,0 UV-I 0,0 C 63 % 90 % 0 % 1006,4 hPa 0,0 l/m 2,4 km/h (1 Bft) 0 min 0 min 7,1 km/h (2 Bft)
09.09.2010 04:32 20,0 C 14,4 C 0,0 UV-I 0,0 C 64 % 90 % 0 % 1006,4 hPa 0,0 l/m 3,2 km/h (1 Bft) 0 min 0 min 6,1 km/h (2 Bft)
09.09.2010 04:34 20,0 C 14,5 C 0,0 UV-I 0,0 C 64 % 90 % 0 % 1006,4 hPa 0,0 l/m 2,8 km/h (1 Bft) 0 min 0 min 0,0 km/h (0 Bft)
09.09.2010 04:36 20,0 C 14,4 C 0,0 UV-I 0,0 C 64 % 90 % 0 % 1006,4 hPa 0,0 l/m 2,8 km/h (1 Bft) 0 min 0 min 0,0 km/h (0 Bft)
09.09.2010 04:41 20,0 C 14,5 C 0,0 UV-I 0,0 C 64 % 90 % 0 % 1006,4 hPa 0,0 l/m 1,6 km/h (1 Bft) 0 min 0 min 0,0 km/h (0 Bft)
09.09.2010 04:48 20,0 C 14,7 C 0,0 UV-I 0,0 C 64 % 90 % 0 % 1006,5 hPa 0,0 l/m 0,8 km/h (0 Bft) 0 min 0 min 0,0 km/h (0 Bft)
09.09.2010 04:54 20,0 C 14,7 C 0,0 UV-I 0,0 C 64 % 90 % 0 % 1006,5 hPa 0,0 l/m 0,4 km/h (0 Bft) 0 min 0 min 0,0 km/h (0 Bft)
09.09.2010 04:58 20,0 C 14,7 C 0,0 UV-I 0,0 C 64 % 90 % 0 % 1006,5 hPa 0,0 l/m 0,4 km/h (0 Bft) 0 min 0 min 0,0 km/h (0 Bft)
09.09.2010 05:00 20,0 C 14,7 C 0,0 UV-I 0,0 C 64 % 90 % 0 % 1006,5 hPa 0,0 l/m 0,4 km/h (0 Bft) 0 min 0 min 4,5 km/h (1 Bft)
09.09.2010 05:06 20,0 C 14,7 C 0,1 UV-I 0,0 C 64 % 90 % 0 % 1006,8 hPa 0,0 l/m 0,4 km/h (0 Bft) 0 min 0 min 4,5 km/h (1 Bft)
09.09.2010 05:08 20,0 C 14,7 C 0,0 UV-I 0,0 C 64 % 90 % 0 % 1006,8 hPa 0,0 l/m 0,0 km/h (0 Bft) 0 min 0 min 3,2 km/h (1 Bft)
09.09.2010 05:14 20,0 C 14,7 C 0,0 UV-I 0,0 C 64 % 90 % 0 % 1006,8 hPa 0,0 l/m 0,4 km/h (0 Bft) 0 min 0 min 3,2 km/h (1 Bft)
09.09.2010 05:20 20,0 C 14,7 C 0,0 UV-I 0,0 C 64 % 90 % 0 % 1006,8 hPa 0,0 l/m 0,8 km/h (0 Bft) 0 min 0 min 7,4 km/h (2 Bft)
09.09.2010 05:22 20,0 C 14,7 C 0,0 UV-I 0,0 C 64 % 90 % 0 % 1006,8 hPa 0,0 l/m 0,4 km/h (0 Bft) 0 min 0 min 0,0 km/h (0 Bft)
09.09.2010 05:24 20,0 C 14,7 C 0,0 UV-I 0,0 C 64 % 90 % 0 % 1006,8 hPa 0,0 l/m 0,4 km/h (0 Bft) 0 min 0 min 3,5 km/h (1 Bft)
09.09.2010 05:26 19,9 C 14,7 C 0,0 UV-I 0,0 C 64 % 90 % 0 % 1006,9 hPa 0,0 l/m 0,8 km/h (0 Bft) 0 min 0 min 0,0 km/h (0 Bft)
09.09.2010 05:30 20,0 C 14,7 C 0,0 UV-I 0,0 C 64 % 90 % 0 % 1006,9 hPa 0,0 l/m 1,2 km/h (1 Bft) 0 min 0 min 9,7 km/h (2 Bft)
09.09.2010 05:32 19,9 C 14,6 C 0,0 UV-I 0,0 C 64 % 90 % 0 % 1006,9 hPa 0,0 l/m 2,0 km/h (1 Bft) 0 min 0 min 9,7 km/h (2 Bft)
09.09.2010 05:36 20,0 C 14,6 C 0,0 UV-I 0,0 C 64 % 90 % 0 % 1006,9 hPa 0,0 l/m 1,6 km/h (1 Bft) 0 min 0 min 9,7 km/h (2 Bft)
09.09.2010 05:38 20,0 C 14,7 C 0,0 UV-I 0,0 C 64 % 90 % 0 % 1006,9 hPa 0,0 l/m 2,0 km/h (1 Bft) 0 min 0 min 0,0 km/h (0 Bft)
09.09.2010 05:40 20,0 C 14,6 C 0,0 UV-I 0,0 C 64 % 90 % 0 % 1006,9 hPa 0,0 l/m 2,4 km/h (1 Bft) 0 min 0 min 5,1 km/h (1 Bft)
09.09.2010 05:48 19,9 C 14,6 C 0,1 UV-I 0,0 C 64 % 91 % 0 % 1007,3 hPa 0,0 l/m 1,6 km/h (1 Bft) 0 min 0 min 5,1 km/h (1 Bft)
09.09.2010 05:50 19,9 C 14,6 C 0,1 UV-I 0,0 C 64 % 91 % 0 % 1007,3 hPa 0,0 l/m 2,4 km/h (1 Bft) 0 min 0 min 7,4 km/h (2 Bft)
09.09.2010 05:52 19,9 C 14,6 C 0,1 UV-I 0,0 C 64 % 91 % 0 % 1007,3 hPa 0,0 l/m 2,8 km/h (1 Bft) 0 min 0 min 7,4 km/h (2 Bft)
09.09.2010 06:00 19,9 C 14,6 C 0,1 UV-I 0,0 C 64 % 91 % 0 % 1007,3 hPa 0,0 l/m 1,6 km/h (1 Bft) 0 min 2 min 4,2 km/h (1 Bft)
09.09.2010 06:02 19,9 C 14,6 C 0,1 UV-I 0,0 C 64 % 91 % 0 % 1007,3 hPa 0,0 l/m 2,0 km/h (1 Bft) 0 min 2 min 4,8 km/h (1 Bft)
09.09.2010 06:04 19,9 C 14,6 C 0,1 UV-I 0,0 C 64 % 91 % 0 % 1007,3 hPa 0,0 l/m 1,6 km/h (1 Bft) 0 min 2 min 4,8 km/h (1 Bft)
09.09.2010 06:06 20,0 C 14,7 C 0,1 UV-I 0,0 C 64 % 92 % 0 % 1007,1 hPa 0,0 l/m 2,4 km/h (1 Bft) 0 min 2 min 8,4 km/h (2 Bft)
09.09.2010 06:08 19,9 C 14,7 C 0,0 UV-I 0,0 C 64 % 92 % 0 % 1007,1 hPa 0,0 l/m 2,8 km/h (1 Bft) 0 min 0 min 8,4 km/h (2 Bft)
09.09.2010 06:14 19,9 C 14,7 C 0,0 UV-I 0,0 C 64 % 92 % 0 % 1007,1 hPa 0,0 l/m 3,2 km/h (1 Bft) 0 min 2 min 10,0 km/h (2 Bft)
09.09.2010 06:16 19,9 C 14,7 C 0,0 UV-I 0,0 C 64 % 92 % 0 % 1007,1 hPa 0,0 l/m 3,2 km/h (1 Bft) 0 min 2 min 7,7 km/h (2 Bft)
09.09.2010 06:20 19,9 C 14,7 C 0,0 UV-I 0,0 C 64 % 92 % 0 % 1007,1 hPa 0,0 l/m 2,4 km/h (1 Bft) 0 min 2 min 7,1 km/h (2 Bft)
09.09.2010 06:24 19,9 C 14,6 C 0,0 UV-I 0,0 C 64 % 92 % 0 % 1007,1 hPa 0,1 l/m 2,0 km/h (1 Bft) 0 min 2 min 7,1 km/h (2 Bft)
09.09.2010 06:26 19,9 C 14,6 C 0,0 UV-I 0,0 C 65 % 92 % 0 % 1007,6 hPa 0,0 l/m 1,6 km/h (1 Bft) 0 min 2 min 5,5 km/h (1 Bft)
09.09.2010 06:30 19,9 C 14,6 C 0,1 UV-I 0,0 C 65 % 92 % 0 % 1007,6 hPa 0,9 l/m 2,4 km/h (1 Bft) 0 min 2 min 4,8 km/h (1 Bft)
09.09.2010 06:32 19,9 C 14,7 C 0,1 UV-I 0,0 C 65 % 92 % 0 % 1007,6 hPa 0,0 l/m 2,0 km/h (1 Bft) 0 min 2 min 4,8 km/h (1 Bft)
09.09.2010 06:34 19,9 C 14,7 C 0,1 UV-I 0,0 C 65 % 92 % 0 % 1007,6 hPa 0,1 l/m 3,2 km/h (1 Bft) 0 min 2 min 6,8 km/h (2 Bft)
09.09.2010 06:38 19,9 C 14,6 C 0,0 UV-I 0,0 C 65 % 92 % 0 % 1007,6 hPa 0,0 l/m 3,6 km/h (1 Bft) 0 min 2 min 9,0 km/h (2 Bft)
09.09.2010 06:42 19,9 C 14,6 C 0,0 UV-I 0,0 C 65 % 92 % 0 % 1007,6 hPa 0,1 l/m 2,8 km/h (1 Bft) 0 min 2 min 9,0 km/h (2 Bft)
09.09.2010 06:46 20,0 C 14,6 C 0,1 UV-I 0,0 C 65 % 92 % 0 % 1008,2 hPa 0,6 l/m 1,2 km/h (1 Bft) 0 min 2 min 14,2 km/h (3 Bft)
09.09.2010 06:51 20,0 C 14,5 C 0,1 UV-I 0,0 C 65 % 93 % 0 % 1008,2 hPa 0,9 l/m 0,8 km/h (0 Bft) 0 min 2 min 3,2 km/h (1 Bft)
09.09.2010 06:56 19,9 C 14,5 C 0,1 UV-I 0,0 C 65 % 93 % 0 % 1008,2 hPa 0,4 l/m 1,2 km/h (1 Bft) 0 min 2 min 0,0 km/h (0 Bft)
09.09.2010 06:58 19,9 C 14,5 C 0,1 UV-I 0,0 C 65 % 93 % 0 % 1008,2 hPa 0,1 l/m 0,8 km/h (0 Bft) 0 min 2 min 0,0 km/h (0 Bft)
09.09.2010 07:00 19,9 C 14,5 C 0,1 UV-I 0,0 C 65 % 93 % 0 % 1008,2 hPa 0,1 l/m 1,2 km/h (1 Bft) 0 min 2 min 6,8 km/h (2 Bft)
09.09.2010 07:02 20,0 C 14,5 C 0,1 UV-I 0,0 C 65 % 93 % 0 % 1008,2 hPa 0,0 l/m 1,2 km/h (1 Bft) 0 min 2 min 6,8 km/h (2 Bft)
09.09.2010 07:06 19,9 C 14,5 C 0,2 UV-I 0,0 C 65 % 93 % 0 % 1008,4 hPa 0,2 l/m 2,0 km/h (1 Bft) 0 min 2 min 3,2 km/h (1 Bft)
09.09.2010 07:12 19,9 C 14,5 C 0,2 UV-I 0,0 C 65 % 93 % 0 % 1008,4 hPa 0,1 l/m 3,6 km/h (1 Bft) 0 min 2 min 6,1 km/h (2 Bft)
09.09.2010 07:14 19,9 C 14,5 C 0,2 UV-I 0,0 C 65 % 93 % 0 % 1008,4 hPa 0,1 l/m 3,2 km/h (1 Bft) 0 min 2 min 0,0 km/h (0 Bft)
09.09.2010 07:16 19,9 C 14,5 C 0,2 UV-I 0,0 C 65 % 93 % 0 % 1008,4 hPa 0,1 l/m 2,8 km/h (1 Bft) 0 min 2 min 0,0 km/h (0 Bft)
09.09.2010 07:18 19,9 C 14,5 C 0,2 UV-I 0,0 C 65 % 93 % 0 % 1008,4 hPa 0,0 l/m 2,0 km/h (1 Bft) 0 min 2 min 3,2 km/h (1 Bft)
09.09.2010 07:20 19,9 C 14,5 C 0,2 UV-I 0,0 C 65 % 93 % 0 % 1008,4 hPa 0,0 l/m 2,4 km/h (1 Bft) 0 min 0 min 7,1 km/h (2 Bft)
09.09.2010 07:27 19,9 C 14,5 C 0,2 UV-I 0,0 C 65 % 93 % 0 % 1008,6 hPa 0,0 l/m 2,0 km/h (1 Bft) 0 min 0 min 5,1 km/h (1 Bft)
09.09.2010 07:38 19,9 C 14,5 C 0,2 UV-I 0,0 C 65 % 93 % 0 % 1008,6 hPa 0,1 l/m 3,2 km/h (1 Bft) 0 min 2 min 7,1 km/h (2 Bft)
09.09.2010 07:40 19,9 C 14,5 C 0,2 UV-I 0,0 C 66 % 93 % 0 % 1008,6 hPa 0,0 l/m 3,6 km/h (1 Bft) 0 min 2 min 8,0 km/h (2 Bft)
09.09.2010 07:46 19,9 C 14,5 C 0,2 UV-I 0,0 C 66 % 94 % 0 % 1008,9 hPa 0,0 l/m 4,0 km/h (1 Bft) 0 min 2 min 11,3 km/h (2 Bft)
09.09.2010 07:48 19,9 C 14,5 C 0,2 UV-I 0,0 C 66 % 94 % 0 % 1008,9 hPa 0,0 l/m 4,8 km/h (1 Bft) 0 min 2 min 3,5 km/h (1 Bft)
09.09.2010 07:52 19,9 C 14,5 C 0,2 UV-I 0,0 C 66 % 94 % 0 % 1008,9 hPa 0,0 l/m 4,4 km/h (1 Bft) 0 min 2 min 4,2 km/h (1 Bft)
09.09.2010 07:56 19,9 C 14,5 C 0,3 UV-I 0,0 C 66 % 94 % 0 % 1008,9 hPa 0,0 l/m 3,6 km/h (1 Bft) 0 min 2 min 4,5 km/h (1 Bft)
09.09.2010 08:00 19,9 C 14,7 C 0,3 UV-I 0,0 C 66 % 94 % 0 % 1008,9 hPa 0,0 l/m 3,2 km/h (1 Bft) 0 min 2 min 6,4 km/h (2 Bft)
09.09.2010 08:04 19,9 C 14,6 C 0,3 UV-I 0,0 C 66 % 94 % 0 % 1008,9 hPa 0,1 l/m 4,4 km/h (1 Bft) 0 min 2 min 5,5 km/h (1 Bft)
09.09.2010 08:06 19,9 C 14,6 C 0,3 UV-I 0,0 C 66 % 94 % 0 % 1009,3 hPa 0,0 l/m 5,2 km/h (1 Bft) 0 min 0 min 6,1 km/h (2 Bft)
09.09.2010 08:14 19,8 C 14,6 C 0,5 UV-I 0,0 C 66 % 94 % 0 % 1009,3 hPa 0,0 l/m 4,8 km/h (1 Bft) 0 min 0 min 15,4 km/h (3 Bft)
09.09.2010 08:20 19,8 C 14,6 C 0,6 UV-I 0,0 C 66 % 94 % 0 % 1009,3 hPa 0,0 l/m 4,8 km/h (1 Bft) 0 min 0 min 9,0 km/h (2 Bft)
09.09.2010 08:22 19,8 C 14,7 C 0,6 UV-I 0,0 C 66 % 94 % 0 % 1009,3 hPa 0,0 l/m 5,2 km/h (1 Bft) 0 min 0 min 9,0 km/h (2 Bft)
09.09.2010 08:26 19,8 C 14,7 C 0,7 UV-I 0,0 C 66 % 94 % 0 % 1009,9 hPa 0,0 l/m 3,6 km/h (1 Bft) 0 min 0 min 0,0 km/h (0 Bft)
09.09.2010 08:30 19,8 C 14,6 C 0,7 UV-I 0,0 C 66 % 94 % 0 % 1009,9 hPa 0,0 l/m 2,0 km/h (1 Bft) 0 min 0 min 4,5 km/h (1 Bft)
09.09.2010 08:31 19,8 C 14,7 C 0,7 UV-I 0,0 C 66 % 94 % 0 % 1009,9 hPa 0,0 l/m 1,6 km/h (1 Bft) 0 min 0 min 0,0 km/h (0 Bft)
09.09.2010 08:37 19,8 C 14,7 C 0,8 UV-I 0,0 C 66 % 93 % 0 % 1009,9 hPa 0,0 l/m 2,8 km/h (1 Bft) 0 min 0 min 8,4 km/h (2 Bft)
09.09.2010 08:40 19,9 C 14,7 C 0,8 UV-I 0,0 C 66 % 93 % 0 % 1009,9 hPa 0,0 l/m 3,6 km/h (1 Bft) 0 min 0 min 0,0 km/h (0 Bft)
09.09.2010 08:44 19,8 C 14,7 C 1,0 UV-I 0,0 C 66 % 94 % 0 % 1009,9 hPa 0,0 l/m 3,6 km/h (1 Bft) 0 min 0 min 14,5 km/h (3 Bft)
09.09.2010 08:50 19,8 C 14,7 C 1,2 UV-I 0,0 C 66 % 93 % 0 % 1009,9 hPa 0,0 l/m 2,8 km/h (1 Bft) 0 min 0 min 8,4 km/h (2 Bft)
09.09.2010 08:54 19,9 C 14,8 C 1,3 UV-I 0,0 C 66 % 94 % 0 % 1009,9 hPa 0,0 l/m 2,8 km/h (1 Bft) 0 min 0 min 5,5 km/h (1 Bft)
09.09.2010 08:56 19,9 C 14,8 C 1,3 UV-I 0,0 C 66 % 93 % 0 % 1009,9 hPa 0,0 l/m 2,4 km/h (1 Bft) 0 min 0 min 10,0 km/h (2 Bft)
09.09.2010 09:00 19,9 C 14,8 C 1,3 UV-I 0,1 C 66 % 93 % 3 % 1009,9 hPa 0,0 l/m 2,8 km/h (1 Bft) 0 min 0 min 10,0 km/h (2 Bft)
09.09.2010 09:02 19,9 C 14,8 C 1,3 UV-I 0,2 C 66 % 94 % 6 % 1009,9 hPa 0,0 l/m 2,0 km/h (1 Bft) 0 min 0 min 5,1 km/h (1 Bft)
09.09.2010 09:04 19,9 C 14,8 C 1,0 UV-I 0,2 C 66 % 94 % 6 % 1009,9 hPa 0,0 l/m 2,4 km/h (1 Bft) 0 min 0 min 5,1 km/h (1 Bft)
09.09.2010 09:12 19,9 C 14,9 C 1,3 UV-I 0,5 C 66 % 93 % 14 % 1010,1 hPa 0,0 l/m 3,6 km/h (1 Bft) 0 min 0 min 10,6 km/h (2 Bft)
09.09.2010 09:14 19,9 C 15,0 C 1,5 UV-I 0,5 C 66 % 93 % 14 % 1010,1 hPa 0,0 l/m 5,2 km/h (1 Bft) 0 min 0 min 5,8 km/h (2 Bft)
09.09.2010 09:16 19,9 C 15,0 C 1,5 UV-I 0,6 C 66 % 93 % 17 % 1010,1 hPa 0,0 l/m 5,2 km/h (1 Bft) 0 min 0 min 0,0 km/h (0 Bft)
09.09.2010 09:21 19,9 C 15,1 C 1,5 UV-I 0,7 C 66 % 93 % 20 % 1010,1 hPa 0,0 l/m 5,2 km/h (1 Bft) 0 min 0 min 4,5 km/h (1 Bft)
09.09.2010 09:26 19,9 C 15,2 C 1,9 UV-I 0,9 C 67 % 93 % 26 % 1010,4 hPa 0,0 l/m 5,2 km/h (1 Bft) 0 min 0 min 0,0 km/h (0 Bft)
09.09.2010 09:31 19,9 C 15,4 C 2,5 UV-I 2,7 C 67 % 93 % 77 % 1010,4 hPa 0,0 l/m 4,0 km/h (1 Bft) 0 min 0 min 7,1 km/h (2 Bft)
09.09.2010 09:36 20,0 C 15,6 C 2,2 UV-I 2,4 C 67 % 93 % 69 % 1010,4 hPa 0,0 l/m 3,2 km/h (1 Bft) 0 min 0 min 4,2 km/h (1 Bft)
09.09.2010 09:41 20,0 C 15,5 C 2,2 UV-I 1,8 C 66 % 93 % 51 % 1010,4 hPa 0,0 l/m 5,2 km/h (1 Bft) 0 min 0 min 3,2 km/h (1 Bft)
09.09.2010 09:43 20,0 C 15,5 C 2,2 UV-I 1,8 C 66 % 93 % 51 % 1010,4 hPa 0,0 l/m 5,2 km/h (1 Bft) 0 min 0 min 3,2 km/h (1 Bft)
09.09.2010 09:44 20,0 C 15,5 C 1,6 UV-I 1,5 C 67 % 92 % 43 % 1010,4 hPa 0,0 l/m 6,0 km/h (2 Bft) 0 min 0 min 5,1 km/h (1 Bft)
09.09.2010 09:46 20,0 C 15,5 C 1,6 UV-I 1,4 C 67 % 93 % 40 % 1010,9 hPa 0,0 l/m 6,4 km/h (2 Bft) 0 min 0 min 7,4 km/h (2 Bft)
09.09.2010 09:48 20,0 C 15,5 C 2,0 UV-I 1,4 C 67 % 93 % 40 % 1010,9 hPa 0,0 l/m 6,8 km/h (2 Bft) 0 min 0 min 7,4 km/h (2 Bft)
09.09.2010 09:50 20,0 C 15,6 C 2,0 UV-I 1,3 C 66 % 92 % 37 % 1010,9 hPa 0,0 l/m 6,8 km/h (2 Bft) 0 min 0 min 5,8 km/h (2 Bft)
09.09.2010 09:52 20,0 C 15,6 C 2,0 UV-I 1,1 C 66 % 92 % 31 % 1010,9 hPa 0,0 l/m 6,4 km/h (2 Bft) 0 min 0 min 5,1 km/h (1 Bft)
09.09.2010 09:54 20,0 C 15,5 C 1,6 UV-I 1,2 C 66 % 92 % 34 % 1010,9 hPa 0,0 l/m 5,6 km/h (1 Bft) 0 min 0 min 6,1 km/h (2 Bft)
09.09.2010 09:56 20,0 C 15,6 C 1,6 UV-I 1,0 C 66 % 92 % 29 % 1010,9 hPa 0,0 l/m 5,2 km/h (1 Bft) 0 min 0 min 6,1 km/h (2 Bft)
09.09.2010 09:58 20,0 C 15,6 C 1,8 UV-I 1,0 C 66 % 92 % 29 % 1010,9 hPa 0,0 l/m 5,2 km/h (1 Bft) 0 min 0 min 5,5 km/h (1 Bft)
09.09.2010 10:00 20,0 C 15,6 C 1,8 UV-I 1,0 C 66 % 92 % 29 % 1010,9 hPa 0,0 l/m 5,2 km/h (1 Bft) 0 min 0 min 9,0 km/h (2 Bft)
09.09.2010 10:02 20,0 C 15,6 C 1,8 UV-I 0,9 C 66 % 92 % 26 % 1010,9 hPa 0,0 l/m 5,2 km/h (1 Bft) 0 min 0 min 14,2 km/h (3 Bft)
09.09.2010 10:04 20,0 C 15,6 C 1,8 UV-I 0,9 C 66 % 92 % 26 % 1010,9 hPa 0,0 l/m 6,0 km/h (2 Bft) 0 min 0 min 14,2 km/h (3 Bft)
09.09.2010 10:06 20,0 C 15,6 C 1,8 UV-I 0,9 C 66 % 92 % 26 % 1011,0 hPa 0,0 l/m 6,0 km/h (2 Bft) 0 min 0 min 10,0 km/h (2 Bft)
09.09.2010 10:08 20,1 C 15,6 C 1,7 UV-I 0,9 C 66 % 92 % 26 % 1011,0 hPa 0,0 l/m 5,6 km/h (1 Bft) 0 min 0 min 5,1 km/h (1 Bft)
09.09.2010 10:10 20,1 C 15,6 C 1,7 UV-I 0,9 C 66 % 92 % 26 % 1011,0 hPa 0,0 l/m 6,0 km/h (2 Bft) 0 min 0 min 5,1 km/h (1 Bft)
09.09.2010 10:12 20,1 C 15,7 C 1,7 UV-I 0,7 C 66 % 92 % 20 % 1011,0 hPa 0,0 l/m 5,6 km/h (1 Bft) 0 min 0 min 5,1 km/h (1 Bft)
09.09.2010 10:14 20,1 C 15,6 C 1,6 UV-I 0,8 C 66 % 92 % 23 % 1011,0 hPa 0,0 l/m 4,0 km/h (1 Bft) 0 min 0 min 7,1 km/h (2 Bft)
09.09.2010 10:16 20,1 C 15,6 C 1,6 UV-I 0,8 C 66 % 92 % 23 % 1011,0 hPa 0,0 l/m 3,6 km/h (1 Bft) 0 min 0 min 7,1 km/h (2 Bft)
09.09.2010 10:18 20,1 C 15,6 C 1,7 UV-I 0,8 C 66 % 91 % 23 % 1011,0 hPa 0,0 l/m 4,0 km/h (1 Bft) 0 min 0 min 5,8 km/h (2 Bft)
09.09.2010 10:20 20,1 C 15,6 C 1,7 UV-I 0,8 C 66 % 91 % 23 % 1011,0 hPa 0,0 l/m 3,6 km/h (1 Bft) 0 min 0 min 5,1 km/h (1 Bft)
09.09.2010 10:22 20,1 C 15,6 C 1,7 UV-I 0,9 C 66 % 92 % 26 % 1011,0 hPa 0,0 l/m 3,2 km/h (1 Bft) 0 min 0 min 5,1 km/h (1 Bft)
09.09.2010 10:24 20,1 C 15,7 C 2,2 UV-I 0,9 C 66 % 91 % 26 % 1011,0 hPa 0,0 l/m 4,0 km/h (1 Bft) 0 min 0 min 4,8 km/h (1 Bft)
09.09.2010 10:26 20,1 C 15,7 C 2,2 UV-I 1,0 C 66 % 91 % 29 % 1011,4 hPa 0,0 l/m 4,0 km/h (1 Bft) 0 min 0 min 9,7 km/h (2 Bft)
09.09.2010 10:28 20,1 C 15,6 C 2,0 UV-I 1,2 C 66 % 91 % 34 % 1011,4 hPa 0,0 l/m 3,6 km/h (1 Bft) 0 min 0 min 9,7 km/h (2 Bft)
09.09.2010 10:30 20,1 C 15,7 C 2,0 UV-I 1,0 C 66 % 91 % 29 % 1011,4 hPa 0,0 l/m 3,6 km/h (1 Bft) 0 min 0 min 4,8 km/h (1 Bft)
09.09.2010 10:32 20,1 C 15,6 C 2,0 UV-I 1,1 C 66 % 91 % 31 % 1011,4 hPa 0,0 l/m 4,0 km/h (1 Bft) 0 min 0 min 5,5 km/h (1 Bft)
09.09.2010 10:34 20,1 C 15,7 C 1,6 UV-I 1,0 C 66 % 91 % 29 % 1011,4 hPa 0,0 l/m 4,0 km/h (1 Bft) 0 min 0 min 5,5 km/h (1 Bft)
09.09.2010 10:36 20,1 C 15,7 C 1,6 UV-I 0,9 C 66 % 91 % 26 % 1011,4 hPa 0,0 l/m 3,6 km/h (1 Bft) 0 min 0 min 3,5 km/h (1 Bft)
09.09.2010 10:38 20,2 C 15,7 C 1,3 UV-I 0,9 C 66 % 91 % 26 % 1011,4 hPa 0,0 l/m 3,2 km/h (1 Bft) 0 min 0 min 3,5 km/h (1 Bft)
09.09.2010 10:40 20,1 C 15,7 C 1,3 UV-I 0,8 C 66 % 91 % 23 % 1011,4 hPa 0,0 l/m 2,4 km/h (1 Bft) 0 min 0 min 5,5 km/h (1 Bft)
09.09.2010 10:42 20,1 C 15,7 C 1,3 UV-I 0,8 C 66 % 91 % 23 % 1011,4 hPa 0,0 l/m 2,8 km/h (1 Bft) 0 min 0 min 5,5 km/h (1 Bft)
09.09.2010 10:44 20,1 C 15,7 C 1,6 UV-I 0,8 C 66 % 91 % 23 % 1011,4 hPa 0,0 l/m 2,4 km/h (1 Bft) 0 min 0 min 0,0 km/h (0 Bft)
09.09.2010 10:46 20,2 C 15,7 C 1,6 UV-I 0,8 C 66 % 91 % 23 % 1011,9 hPa 0,0 l/m 2,4 km/h (1 Bft) 0 min 0 min 9,7 km/h (2 Bft)
09.09.2010 10:48 20,1 C 15,7 C 1,8 UV-I 0,8 C 66 % 91 % 23 % 1011,9 hPa 0,0 l/m 3,2 km/h (1 Bft) 0 min 0 min 9,7 km/h (2 Bft)
09.09.2010 10:50 20,2 C 15,7 C 1,8 UV-I 0,9 C 66 % 91 % 26 % 1011,9 hPa 0,0 l/m 4,0 km/h (1 Bft) 0 min 0 min 7,4 km/h (2 Bft)
09.09.2010 10:52 20,2 C 15,7 C 1,8 UV-I 0,9 C 66 % 91 % 26 % 1011,9 hPa 0,0 l/m 3,6 km/h (1 Bft) 0 min 0 min 7,4 km/h (2 Bft)
09.09.2010 10:54 20,2 C 15,9 C 2,0 UV-I 0,8 C 66 % 91 % 23 % 1011,9 hPa 0,0 l/m 4,0 km/h (1 Bft) 0 min 0 min 5,8 km/h (2 Bft)
09.09.2010 10:56 20,2 C 15,9 C 2,0 UV-I 0,8 C 66 % 91 % 23 % 1011,9 hPa 0,0 l/m 5,2 km/h (1 Bft) 0 min 0 min 5,8 km/h (2 Bft)
09.09.2010 10:58 20,2 C 15,9 C 2,7 UV-I 1,0 C 66 % 91 % 29 % 1011,9 hPa 0,0 l/m 5,2 km/h (1 Bft) 0 min 0 min 11,6 km/h (2 Bft)
09.09.2010 11:00 20,2 C 15,9 C 2,7 UV-I 1,1 C 66 % 91 % 31 % 1011,9 hPa 0,0 l/m 5,6 km/h (1 Bft) 0 min 0 min 11,6 km/h (2 Bft)
09.09.2010 11:02 20,2 C 15,9 C 2,7 UV-I 1,3 C 66 % 90 % 37 % 1011,9 hPa 0,0 l/m 6,0 km/h (2 Bft) 0 min 0 min 4,8 km/h (1 Bft)
09.09.2010 11:04 20,2 C 16,0 C 2,7 UV-I 1,3 C 66 % 90 % 37 % 1011,9 hPa 0,0 l/m 6,0 km/h (2 Bft) 0 min 0 min 4,8 km/h (1 Bft)
09.09.2010 11:06 20,2 C 16,0 C 2,7 UV-I 1,4 C 66 % 90 % 40 % 1012,2 hPa 0,0 l/m 5,2 km/h (1 Bft) 0 min 0 min 7,1 km/h (2 Bft)
09.09.2010 11:08 20,2 C 16,0 C 1,9 UV-I 1,4 C 66 % 90 % 40 % 1012,2 hPa 0,0 l/m 5,6 km/h (1 Bft) 0 min 0 min 7,1 km/h (2 Bft)
09.09.2010 11:10 20,2 C 16,0 C 1,9 UV-I 1,3 C 66 % 90 % 37 % 1012,2 hPa 0,0 l/m 5,6 km/h (1 Bft) 0 min 0 min 7,1 km/h (2 Bft)
09.09.2010 11:12 20,2 C 16,0 C 1,9 UV-I 1,3 C 66 % 90 % 37 % 1012,2 hPa 0,0 l/m 5,2 km/h (1 Bft) 0 min 0 min 8,0 km/h (2 Bft)
09.09.2010 11:14 20,2 C 16,1 C 1,8 UV-I 1,1 C 66 % 90 % 31 % 1012,2 hPa 0,0 l/m 5,6 km/h (1 Bft) 0 min 0 min 8,0 km/h (2 Bft)
09.09.2010 11:16 20,2 C 16,1 C 1,8 UV-I 1,1 C 66 % 90 % 31 % 1012,2 hPa 0,0 l/m 6,4 km/h (2 Bft) 0 min 0 min 4,5 km/h (1 Bft)
09.09.2010 11:18 20,2 C 16,1 C 2,0 UV-I 1,1 C 66 % 90 % 31 % 1012,2 hPa 0,0 l/m 6,0 km/h (2 Bft) 0 min 0 min 12,2 km/h (2 Bft)
09.09.2010 11:20 20,2 C 16,1 C 2,0 UV-I 1,1 C 66 % 90 % 31 % 1012,2 hPa 0,0 l/m 6,4 km/h (2 Bft) 0 min 0 min 14,5 km/h (3 Bft)
09.09.2010 11:22 20,2 C 16,3 C 2,0 UV-I 0,9 C 66 % 90 % 26 % 1012,2 hPa 0,0 l/m 7,2 km/h (2 Bft) 0 min 0 min 14,5 km/h (3 Bft)
09.09.2010 11:24 20,2 C 16,2 C 2,7 UV-I 1,1 C 66 % 89 % 31 % 1012,2 hPa 0,0 l/m 7,6 km/h (2 Bft) 0 min 0 min 17,7 km/h (3 Bft)
09.09.2010 11:26 20,2 C 16,2 C 2,7 UV-I 1,2 C 66 % 89 % 34 % 1012,6 hPa 0,0 l/m 7,2 km/h (2 Bft) 0 min 0 min 5,5 km/h (1 Bft)
09.09.2010 11:28 20,3 C 16,3 C 2,6 UV-I 1,2 C 66 % 89 % 34 % 1012,6 hPa 0,0 l/m 7,2 km/h (2 Bft) 0 min 0 min 5,5 km/h (1 Bft)
09.09.2010 11:30 20,3 C 16,3 C 2,6 UV-I 1,3 C 66 % 89 % 37 % 1012,6 hPa 0,0 l/m 7,2 km/h (2 Bft) 0 min 0 min 7,1 km/h (2 Bft)
09.09.2010 11:32 20,3 C 16,3 C 2,6 UV-I 1,4 C 66 % 89 % 40 % 1012,6 hPa 0,0 l/m 6,4 km/h (2 Bft) 0 min 0 min 7,1 km/h (2 Bft)
09.09.2010 11:34 20,3 C 16,3 C 2,4 UV-I 1,4 C 66 % 88 % 40 % 1012,6 hPa 0,0 l/m 5,6 km/h (1 Bft) 0 min 0 min 4,8 km/h (1 Bft)
09.09.2010 11:36 20,3 C 16,3 C 2,4 UV-I 1,4 C 66 % 88 % 40 % 1012,6 hPa 0,0 l/m 6,0 km/h (2 Bft) 0 min 0 min 9,7 km/h (2 Bft)
09.09.2010 11:38 20,3 C 16,4 C 2,3 UV-I 1,2 C 66 % 88 % 34 % 1012,6 hPa 0,0 l/m 6,4 km/h (2 Bft) 0 min 0 min 9,7 km/h (2 Bft)
09.09.2010 11:40 20,2 C 16,4 C 2,3 UV-I 1,2 C 66 % 88 % 34 % 1012,6 hPa 0,0 l/m 6,4 km/h (2 Bft) 0 min 0 min 6,8 km/h (2 Bft)
09.09.2010 11:42 20,2 C 16,5 C 2,3 UV-I 1,2 C 66 % 89 % 34 % 1012,6 hPa 0,0 l/m 5,6 km/h (1 Bft) 0 min 0 min 6,8 km/h (2 Bft)
09.09.2010 11:44 20,2 C 16,4 C 2,5 UV-I 1,2 C 66 % 88 % 34 % 1012,6 hPa 0,0 l/m 5,6 km/h (1 Bft) 0 min 0 min 7,1 km/h (2 Bft)
09.09.2010 11:46 20,2 C 16,4 C 2,5 UV-I 1,4 C 66 % 88 % 40 % 1012,7 hPa 0,0 l/m 4,8 km/h (1 Bft) 0 min 0 min 7,1 km/h (2 Bft)
09.09.2010 11:48 20,4 C 16,5 C 2,9 UV-I 1,3 C 66 % 88 % 37 % 1012,7 hPa 0,0 l/m 4,0 km/h (1 Bft) 0 min 0 min 5,8 km/h (2 Bft)
09.09.2010 11:50 20,4 C 16,5 C 2,9 UV-I 1,5 C 65 % 88 % 43 % 1012,7 hPa 0,0 l/m 3,2 km/h (1 Bft) 0 min 0 min 5,8 km/h (2 Bft)
09.09.2010 11:52 20,2 C 16,5 C 2,9 UV-I 1,5 C 66 % 88 % 43 % 1012,7 hPa 0,0 l/m 3,6 km/h (1 Bft) 0 min 0 min 0,0 km/h (0 Bft)
09.09.2010 11:54 20,4 C 16,6 C 2,6 UV-I 1,5 C 65 % 88 % 43 % 1012,7 hPa 0,0 l/m 3,2 km/h (1 Bft) 0 min 0 min 3,9 km/h (1 Bft)
09.09.2010 11:56 20,4 C 16,5 C 2,6 UV-I 1,6 C 65 % 88 % 46 % 1012,7 hPa 0,0 l/m 3,2 km/h (1 Bft) 0 min 0 min 3,9 km/h (1 Bft)
09.09.2010 11:58 20,4 C 16,6 C 1,9 UV-I 1,4 C 65 % 88 % 40 % 1012,7 hPa 0,0 l/m 3,6 km/h (1 Bft) 0 min 0 min 7,1 km/h (2 Bft)
09.09.2010 12:00 20,4 C 16,6 C 1,9 UV-I 1,4 C 65 % 88 % 40 % 1012,7 hPa 0,0 l/m 3,6 km/h (1 Bft) 0 min 0 min 7,1 km/h (2 Bft)
09.09.2010 12:02 20,4 C 16,5 C 1,9 UV-I 1,5 C 65 % 88 % 43 % 1012,7 hPa 0,0 l/m 4,0 km/h (1 Bft) 0 min 0 min 5,1 km/h (1 Bft)
09.09.2010 12:04 20,4 C 16,5 C 1,9 UV-I 1,3 C 65 % 87 % 37 % 1012,7 hPa 0,0 l/m 3,2 km/h (1 Bft) 0 min 0 min 5,1 km/h (1 Bft)
09.09.2010 12:06 20,4 C 16,5 C 1,9 UV-I 1,3 C 65 % 87 % 37 % 1012,8 hPa 0,0 l/m 4,0 km/h (1 Bft) 0 min 0 min 3,5 km/h (1 Bft)
09.09.2010 12:08 20,4 C 16,5 C 2,0 UV-I 1,3 C 65 % 87 % 37 % 1012,8 hPa 0,0 l/m 3,6 km/h (1 Bft) 0 min 0 min 0,0 km/h (0 Bft)
09.09.2010 12:10 20,4 C 16,5 C 2,0 UV-I 1,3 C 65 % 87 % 37 % 1012,8 hPa 0,0 l/m 2,8 km/h (1 Bft) 0 min 0 min 4,5 km/h (1 Bft)
09.09.2010 12:12 20,4 C 16,5 C 2,0 UV-I 1,3 C 65 % 87 % 37 % 1012,8 hPa 0,0 l/m 3,2 km/h (1 Bft) 0 min 0 min 10,6 km/h (2 Bft)
09.09.2010 12:14 20,4 C 16,6 C 2,3 UV-I 1,2 C 65 % 87 % 34 % 1012,8 hPa 0,0 l/m 2,8 km/h (1 Bft) 0 min 0 min 10,6 km/h (2 Bft)
09.09.2010 12:16 20,4 C 16,7 C 2,3 UV-I 1,3 C 65 % 87 % 37 % 1012,8 hPa 0,0 l/m 2,4 km/h (1 Bft) 0 min 0 min 5,8 km/h (2 Bft)
09.09.2010 12:18 20,4 C 16,7 C 2,6 UV-I 1,4 C 65 % 87 % 40 % 1012,8 hPa 0,0 l/m 2,8 km/h (1 Bft) 0 min 0 min 6,4 km/h (2 Bft)
09.09.2010 12:20 20,4 C 16,7 C 2,6 UV-I 1,5 C 65 % 87 % 43 % 1012,8 hPa 0,0 l/m 3,2 km/h (1 Bft) 0 min 0 min 6,4 km/h (2 Bft)
09.09.2010 12:22 20,4 C 16,7 C 2,6 UV-I 1,5 C 65 % 87 % 43 % 1012,8 hPa 0,0 l/m 3,6 km/h (1 Bft) 0 min 0 min 11,3 km/h (2 Bft)
09.09.2010 12:24 20,4 C 16,8 C 2,3 UV-I 1,4 C 65 % 87 % 40 % 1012,8 hPa 0,0 l/m 2,8 km/h (1 Bft) 0 min 0 min 11,3 km/h (2 Bft)
09.09.2010 12:26 20,4 C 16,8 C 2,3 UV-I 1,4 C 65 % 87 % 40 % 1013,1 hPa 0,0 l/m 3,2 km/h (1 Bft) 0 min 0 min 0,0 km/h (0 Bft)
09.09.2010 12:28 20,4 C 16,8 C 2,4 UV-I 1,5 C 65 % 87 % 43 % 1013,1 hPa 0,0 l/m 3,6 km/h (1 Bft) 0 min 0 min 4,2 km/h (1 Bft)
09.09.2010 12:30 20,5 C 16,8 C 2,4 UV-I 1,6 C 65 % 86 % 46 % 1013,1 hPa 0,0 l/m 3,6 km/h (1 Bft) 0 min 0 min 7,4 km/h (2 Bft)
09.09.2010 12:32 20,4 C 16,8 C 2,4 UV-I 1,5 C 65 % 86 % 43 % 1013,1 hPa 0,0 l/m 4,0 km/h (1 Bft) 0 min 0 min 7,4 km/h (2 Bft)
09.09.2010 12:34 20,4 C 16,8 C 2,1 UV-I 1,4 C 65 % 86 % 40 % 1013,1 hPa 0,0 l/m 3,6 km/h (1 Bft) 0 min 0 min 0,0 km/h (0 Bft)
09.09.2010 12:36 20,4 C 16,9 C 2,1 UV-I 1,4 C 65 % 86 % 40 % 1013,1 hPa 0,0 l/m 3,2 km/h (1 Bft) 0 min 0 min 0,0 km/h (0 Bft)
09.09.2010 12:38 20,5 C 17,0 C 2,5 UV-I 1,4 C 65 % 86 % 40 % 1013,1 hPa 0,0 l/m 2,8 km/h (1 Bft) 0 min 0 min 3,9 km/h (1 Bft)
09.09.2010 12:40 20,5 C 17,0 C 2,5 UV-I 1,5 C 65 % 86 % 43 % 1013,1 hPa 0,0 l/m 2,4 km/h (1 Bft) 0 min 0 min 6,4 km/h (2 Bft)
09.09.2010 12:44 20,5 C 17,1 C 2,7 UV-I 1,6 C 65 % 86 % 46 % 1013,1 hPa 0,0 l/m 2,4 km/h (1 Bft) 0 min 0 min 6,4 km/h (2 Bft)
09.09.2010 12:46 20,5 C 17,1 C 2,7 UV-I 1,6 C 65 % 85 % 46 % 1013,3 hPa 0,0 l/m 3,6 km/h (1 Bft) 0 min 0 min 9,7 km/h (2 Bft)
09.09.2010 12:48 20,5 C 17,1 C 2,5 UV-I 1,6 C 65 % 85 % 46 % 1013,3 hPa 0,0 l/m 4,4 km/h (1 Bft) 0 min 0 min 9,7 km/h (2 Bft)
09.09.2010 12:50 20,5 C 17,1 C 2,5 UV-I 1,6 C 65 % 85 % 46 % 1013,3 hPa 0,0 l/m 4,4 km/h (1 Bft) 0 min 0 min 3,9 km/h (1 Bft)
09.09.2010 12:52 20,5 C 17,1 C 2,5 UV-I 1,7 C 65 % 85 % 49 % 1013,3 hPa 0,0 l/m 4,4 km/h (1 Bft) 0 min 0 min 6,4 km/h (2 Bft)
09.09.2010 12:54 20,6 C 17,2 C 2,6 UV-I 1,7 C 65 % 85 % 49 % 1013,3 hPa 0,0 l/m 4,0 km/h (1 Bft) 0 min 0 min 6,4 km/h (2 Bft)
09.09.2010 12:56 20,5 C 17,2 C 2,6 UV-I 1,7 C 65 % 85 % 49 % 1013,3 hPa 0,0 l/m 4,0 km/h (1 Bft) 0 min 0 min 4,5 km/h (1 Bft)
09.09.2010 12:58 20,6 C 17,3 C 2,9 UV-I 1,7 C 65 % 85 % 49 % 1013,3 hPa 0,0 l/m 4,0 km/h (1 Bft) 0 min 0 min 8,4 km/h (2 Bft)
09.09.2010 13:00 20,6 C 17,2 C 2,9 UV-I 1,9 C 65 % 85 % 54 % 1013,3 hPa 0,0 l/m 3,6 km/h (1 Bft) 0 min 0 min 8,4 km/h (2 Bft)
09.09.2010 13:02 20,6 C 17,3 C 2,9 UV-I 1,8 C 65 % 85 % 51 % 1013,3 hPa 0,0 l/m 3,6 km/h (1 Bft) 0 min 0 min 8,7 km/h (2 Bft)
09.09.2010 13:04 20,6 C 17,3 C 3,1 UV-I 1,9 C 65 % 84 % 54 % 1013,3 hPa 0,0 l/m 4,0 km/h (1 Bft) 0 min 0 min 8,7 km/h (2 Bft)
09.09.2010 13:06 20,6 C 17,5 C 3,1 UV-I 1,7 C 65 % 85 % 49 % 1013,4 hPa 0,0 l/m 4,0 km/h (1 Bft) 0 min 0 min 5,1 km/h (1 Bft)
09.09.2010 13:08 20,6 C 17,5 C 3,1 UV-I 1,8 C 65 % 84 % 51 % 1013,4 hPa 0,0 l/m 3,6 km/h (1 Bft) 0 min 0 min 5,1 km/h (1 Bft)
09.09.2010 13:10 20,6 C 17,4 C 3,1 UV-I 2,0 C 65 % 84 % 57 % 1013,4 hPa 0,0 l/m 3,2 km/h (1 Bft) 0 min 0 min 6,8 km/h (2 Bft)
09.09.2010 13:12 20,6 C 17,6 C 3,1 UV-I 2,0 C 65 % 84 % 57 % 1013,4 hPa 0,0 l/m 3,6 km/h (1 Bft) 0 min 0 min 7,4 km/h (2 Bft)
09.09.2010 13:14 20,6 C 17,6 C 5,0 UV-I 2,6 C 65 % 83 % 74 % 1013,4 hPa 0,0 l/m 4,4 km/h (1 Bft) 0 min 0 min 13,8 km/h (3 Bft)
09.09.2010 13:18 20,6 C 17,9 C 6,8 UV-I 3,4 C 65 % 83 % 97 % 1013,4 hPa 0,0 l/m 5,6 km/h (1 Bft) 2 min 0 min 13,8 km/h (3 Bft)
09.09.2010 13:20 20,7 C 18,0 C 6,8 UV-I 3,9 C 65 % 83 % 100 % 1013,4 hPa 0,0 l/m 7,2 km/h (2 Bft) 2 min 0 min 7,4 km/h (2 Bft)
09.09.2010 13:22 20,7 C 18,3 C 6,8 UV-I 3,8 C 65 % 83 % 100 % 1013,4 hPa 0,0 l/m 7,2 km/h (2 Bft) 2 min 0 min 7,4 km/h (2 Bft)
09.09.2010 13:24 20,7 C 18,3 C 6,4 UV-I 4,3 C 65 % 82 % 100 % 1013,4 hPa 0,0 l/m 7,2 km/h (2 Bft) 2 min 0 min 5,5 km/h (1 Bft)
09.09.2010 13:26 20,7 C 18,4 C 6,4 UV-I 4,5 C 65 % 81 % 100 % 1013,9 hPa 0,0 l/m 7,2 km/h (2 Bft) 2 min 0 min 10,0 km/h (2 Bft)
09.09.2010 13:28 20,8 C 18,4 C 6,7 UV-I 4,6 C 65 % 81 % 100 % 1013,9 hPa 0,0 l/m 7,2 km/h (2 Bft) 2 min 0 min 10,0 km/h (2 Bft)
09.09.2010 13:30 20,8 C 18,5 C 6,7 UV-I 4,7 C 65 % 81 % 100 % 1013,9 hPa 0,0 l/m 7,2 km/h (2 Bft) 2 min 0 min 9,0 km/h (2 Bft)
09.09.2010 13:32 20,8 C 18,4 C 6,7 UV-I 4,5 C 65 % 80 % 100 % 1013,9 hPa 0,0 l/m 6,8 km/h (2 Bft) 2 min 0 min 9,0 km/h (2 Bft)
09.09.2010 13:34 20,8 C 18,5 C 5,1 UV-I 4,4 C 65 % 80 % 100 % 1013,9 hPa 0,0 l/m 7,2 km/h (2 Bft) 2 min 0 min 19,0 km/h (3 Bft)
09.09.2010 13:36 20,8 C 18,7 C 5,1 UV-I 4,8 C 65 % 80 % 100 % 1013,9 hPa 0,0 l/m 8,0 km/h (2 Bft) 2 min 0 min 9,7 km/h (2 Bft)
09.09.2010 13:38 20,8 C 18,7 C 5,3 UV-I 4,7 C 65 % 80 % 100 % 1013,9 hPa 0,0 l/m 8,0 km/h (2 Bft) 2 min 0 min 9,7 km/h (2 Bft)
09.09.2010 13:40 20,9 C 18,7 C 5,3 UV-I 4,4 C 65 % 80 % 100 % 1013,9 hPa 0,0 l/m 7,6 km/h (2 Bft) 2 min 0 min 12,2 km/h (2 Bft)
09.09.2010 13:42 20,9 C 18,9 C 5,3 UV-I 4,4 C 64 % 79 % 100 % 1013,9 hPa 0,0 l/m 8,0 km/h (2 Bft) 2 min 0 min 23,2 km/h (4 Bft)
09.09.2010 13:44 20,9 C 18,8 C 6,6 UV-I 4,7 C 64 % 79 % 100 % 1013,9 hPa 0,0 l/m 7,2 km/h (2 Bft) 2 min 0 min 23,2 km/h (4 Bft)
09.09.2010 13:46 21,0 C 18,9 C 6,6 UV-I 4,5 C 64 % 79 % 100 % 1013,9 hPa 0,0 l/m 6,8 km/h (2 Bft) 2 min 0 min 7,7 km/h (2 Bft)
09.09.2010 13:48 21,0 C 18,9 C 7,0 UV-I 4,9 C 64 % 79 % 100 % 1013,9 hPa 0,0 l/m 5,6 km/h (1 Bft) 2 min 0 min 7,7 km/h (2 Bft)
09.09.2010 13:50 21,0 C 19,0 C 7,0 UV-I 5,1 C 64 % 79 % 100 % 1013,9 hPa 0,0 l/m 5,2 km/h (1 Bft) 2 min 0 min 6,4 km/h (2 Bft)
09.09.2010 13:52 21,0 C 19,2 C 7,0 UV-I 5,3 C 64 % 78 % 100 % 1013,9 hPa 0,0 l/m 5,6 km/h (1 Bft) 2 min 0 min 12,2 km/h (2 Bft)
09.09.2010 13:54 21,1 C 19,5 C 7,0 UV-I 5,5 C 64 % 76 % 100 % 1013,9 hPa 0,0 l/m 5,2 km/h (1 Bft) 2 min 0 min 12,2 km/h (2 Bft)
09.09.2010 13:56 21,1 C 19,5 C 7,0 UV-I 5,6 C 64 % 76 % 100 % 1013,9 hPa 0,0 l/m 6,4 km/h (2 Bft) 2 min 0 min 7,4 km/h (2 Bft)
09.09.2010 13:58 21,1 C 19,4 C 6,8 UV-I 5,6 C 64 % 76 % 100 % 1013,9 hPa 0,0 l/m 6,8 km/h (2 Bft) 2 min 0 min 8,0 km/h (2 Bft)
09.09.2010 14:00 21,2 C 19,6 C 6,8 UV-I 5,2 C 64 % 76 % 100 % 1013,9 hPa 0,0 l/m 6,8 km/h (2 Bft) 2 min 0 min 13,5 km/h (3 Bft)
09.09.2010 14:02 21,2 C 19,7 C 6,8 UV-I 5,2 C 64 % 76 % 100 % 1013,9 hPa 0,0 l/m 7,6 km/h (2 Bft) 2 min 0 min 13,5 km/h (3 Bft)
09.09.2010 14:04 21,2 C 19,7 C 7,4 UV-I 5,5 C 63 % 76 % 100 % 1013,9 hPa 0,0 l/m 6,4 km/h (2 Bft) 2 min 0 min 6,4 km/h (2 Bft)
09.09.2010 14:06 21,2 C 19,7 C 7,4 UV-I 5,4 C 63 % 75 % 100 % 1014,3 hPa 0,0 l/m 6,4 km/h (2 Bft) 2 min 0 min 9,7 km/h (2 Bft)
09.09.2010 14:08 21,2 C 19,7 C 4,3 UV-I 5,0 C 63 % 75 % 100 % 1014,3 hPa 0,0 l/m 6,0 km/h (2 Bft) 2 min 0 min 9,7 km/h (2 Bft)
09.09.2010 14:10 21,2 C 19,6 C 4,3 UV-I 4,6 C 63 % 75 % 100 % 1014,3 hPa 0,0 l/m 5,6 km/h (1 Bft) 2 min 0 min 5,8 km/h (2 Bft)
09.09.2010 14:12 21,2 C 19,6 C 4,3 UV-I 4,2 C 63 % 75 % 100 % 1014,3 hPa 0,0 l/m 4,8 km/h (1 Bft) 2 min 0 min 5,8 km/h (2 Bft)
09.09.2010 14:14 21,2 C 19,5 C 2,2 UV-I 3,7 C 63 % 75 % 100 % 1014,3 hPa 0,0 l/m 4,4 km/h (1 Bft) 2 min 0 min 0,0 km/h (0 Bft)
09.09.2010 14:18 21,4 C 19,4 C 0,9 UV-I 2,9 C 63 % 74 % 83 % 1014,3 hPa 0,0 l/m 4,8 km/h (1 Bft) 2 min 2 min 9,0 km/h (2 Bft)
09.09.2010 14:20 21,4 C 19,2 C 0,9 UV-I 2,5 C 63 % 74 % 71 % 1014,3 hPa 0,0 l/m 5,2 km/h (1 Bft) 0 min 2 min 7,4 km/h (2 Bft)
09.09.2010 14:22 21,4 C 19,2 C 0,9 UV-I 1,9 C 62 % 75 % 54 % 1014,3 hPa 0,0 l/m 4,8 km/h (1 Bft) 0 min 2 min 8,4 km/h (2 Bft)
09.09.2010 14:24 21,4 C 19,1 C 0,4 UV-I 1,5 C 62 % 75 % 43 % 1014,3 hPa 0,0 l/m 6,0 km/h (2 Bft) 0 min 2 min 8,4 km/h (2 Bft)
09.09.2010 14:26 21,5 C 18,9 C 0,4 UV-I 0,9 C 62 % 76 % 26 % 1014,3 hPa 0,0 l/m 6,0 km/h (2 Bft) 0 min 2 min 7,4 km/h (2 Bft)
09.09.2010 14:28 21,5 C 18,9 C 0,2 UV-I 0,2 C 62 % 77 % 6 % 1014,3 hPa 0,0 l/m 4,8 km/h (1 Bft) 0 min 2 min 4,8 km/h (1 Bft)
09.09.2010 14:30 21,5 C 18,7 C 0,2 UV-I 0,0 C 62 % 79 % 0 % 1014,3 hPa 1,1 l/m 4,8 km/h (1 Bft) 0 min 2 min 6,1 km/h (2 Bft)
09.09.2010 14:34 21,5 C 18,3 C 0,4 UV-I 0,0 C 62 % 81 % 0 % 1014,3 hPa 0,6 l/m 4,4 km/h (1 Bft) 0 min 2 min 6,1 km/h (2 Bft)
09.09.2010 14:36 21,5 C 18,0 C 0,4 UV-I 0,0 C 62 % 81 % 0 % 1014,3 hPa 0,4 l/m 3,2 km/h (1 Bft) 0 min 2 min 3,5 km/h (1 Bft)
09.09.2010 14:38 21,5 C 17,9 C 1,0 UV-I 0,0 C 62 % 82 % 0 % 1014,3 hPa 0,0 l/m 3,2 km/h (1 Bft) 0 min 2 min 3,9 km/h (1 Bft)
09.09.2010 14:40 21,5 C 17,6 C 1,0 UV-I 0,0 C 62 % 83 % 0 % 1014,3 hPa 0,0 l/m 2,8 km/h (1 Bft) 0 min 2 min 3,9 km/h (1 Bft)
09.09.2010 14:42 21,5 C 17,6 C 1,0 UV-I 0,0 C 62 % 83 % 0 % 1014,3 hPa 0,1 l/m 2,0 km/h (1 Bft) 0 min 2 min 0,0 km/h (0 Bft)
09.09.2010 14:44 21,5 C 17,6 C 1,4 UV-I 0,0 C 62 % 83 % 0 % 1014,3 hPa 0,1 l/m 0,8 km/h (0 Bft) 0 min 2 min 0,0 km/h (0 Bft)
09.09.2010 14:46 21,5 C 17,5 C 1,4 UV-I 0,0 C 62 % 84 % 0 % 1014,2 hPa 0,0 l/m 0,4 km/h (0 Bft) 0 min 0 min 0,0 km/h (0 Bft)
09.09.2010 14:50 21,5 C 17,3 C 1,4 UV-I 0,0 C 62 % 84 % 0 % 1014,2 hPa 0,0 l/m 0,4 km/h (0 Bft) 0 min 0 min 0,0 km/h (0 Bft)
09.09.2010 14:52 21,5 C 17,3 C 1,4 UV-I 0,0 C 62 % 85 % 0 % 1014,2 hPa 0,0 l/m 0,4 km/h (0 Bft) 0 min 0 min 0,0 km/h (0 Bft)
09.09.2010 14:54 21,5 C 17,3 C 1,4 UV-I 0,0 C 62 % 85 % 0 % 1014,2 hPa 0,0 l/m 0,4 km/h (0 Bft) 0 min 0 min 0,0 km/h (0 Bft)
09.09.2010 14:56 21,5 C 17,3 C 1,4 UV-I 0,0 C 63 % 86 % 0 % 1014,2 hPa 0,0 l/m 0,4 km/h (0 Bft) 0 min 0 min 0,0 km/h (0 Bft)
09.09.2010 14:58 21,5 C 17,3 C 2,6 UV-I 0,0 C 63 % 86 % 0 % 1014,2 hPa 0,0 l/m 0,4 km/h (0 Bft) 0 min 0 min 0,0 km/h (0 Bft)
09.09.2010 15:00 21,5 C 17,5 C 2,6 UV-I 0,0 C 63 % 86 % 0 % 1014,2 hPa 0,0 l/m 0,4 km/h (0 Bft) 0 min 0 min 0,0 km/h (0 Bft)
09.09.2010 15:02 21,5 C 17,5 C 2,6 UV-I 0,0 C 63 % 87 % 0 % 1014,2 hPa 0,0 l/m 0,4 km/h (0 Bft) 0 min 0 min 0,0 km/h (0 Bft)
09.09.2010 15:04 21,5 C 17,5 C 3,3 UV-I 0,5 C 63 % 87 % 14 % 1014,2 hPa 0,0 l/m 0,0 km/h (0 Bft) 0 min 0 min 0,0 km/h (0 Bft)
09.09.2010 15:06 21,6 C 17,5 C 3,3 UV-I 1,0 C 63 % 87 % 29 % 1014,4 hPa 0,0 l/m 0,0 km/h (0 Bft) 0 min 0 min 0,0 km/h (0 Bft)
09.09.2010 15:08 21,5 C 17,5 C 3,3 UV-I 1,3 C 63 % 88 % 37 % 1014,4 hPa 0,0 l/m 0,0 km/h (0 Bft) 0 min 0 min 0,0 km/h (0 Bft)
09.09.2010 15:10 21,5 C 17,6 C 3,3 UV-I 1,4 C 63 % 88 % 40 % 1014,4 hPa 0,0 l/m 0,0 km/h (0 Bft) 0 min 0 min 0,0 km/h (0 Bft)
09.09.2010 15:12 21,6 C 17,7 C 3,3 UV-I 1,3 C 63 % 88 % 37 % 1014,4 hPa 0,0 l/m 0,0 km/h (0 Bft) 0 min 0 min 0,0 km/h (0 Bft)
09.09.2010 15:14 21,5 C 17,6 C 2,2 UV-I 1,4 C 63 % 88 % 40 % 1014,4 hPa 0,0 l/m 1,2 km/h (1 Bft) 0 min 0 min 3,9 km/h (1 Bft)
09.09.2010 15:16 21,5 C 17,7 C 2,2 UV-I 1,2 C 63 % 88 % 34 % 1014,4 hPa 0,0 l/m 1,2 km/h (1 Bft) 0 min 0 min 0,0 km/h (0 Bft)
09.09.2010 15:18 21,5 C 17,6 C 1,3 UV-I 1,2 C 63 % 88 % 34 % 1014,4 hPa 0,0 l/m 1,6 km/h (1 Bft) 0 min 0 min 0,0 km/h (0 Bft)
09.09.2010 15:20 21,5 C 17,6 C 1,3 UV-I 1,0 C 63 % 87 % 29 % 1014,4 hPa 0,0 l/m 2,0 km/h (1 Bft) 0 min 0 min 12,9 km/h (3 Bft)
09.09.2010 15:22 21,5 C 17,6 C 1,3 UV-I 0,8 C 63 % 87 % 23 % 1014,4 hPa 0,0 l/m 3,2 km/h (1 Bft) 0 min 0 min 12,9 km/h (3 Bft)
09.09.2010 15:24 21,5 C 17,5 C 1,3 UV-I 0,7 C 63 % 87 % 20 % 1014,4 hPa 0,0 l/m 3,6 km/h (1 Bft) 0 min 2 min 5,8 km/h (2 Bft)
09.09.2010 15:26 21,5 C 17,5 C 1,3 UV-I 0,5 C 63 % 87 % 14 % 1014,5 hPa 0,0 l/m 4,0 km/h (1 Bft) 0 min 2 min 6,1 km/h (2 Bft)
09.09.2010 15:28 21,5 C 17,5 C 1,0 UV-I 0,3 C 63 % 87 % 9 % 1014,5 hPa 0,0 l/m 5,2 km/h (1 Bft) 0 min 2 min 6,1 km/h (2 Bft)
09.09.2010 15:30 21,5 C 17,3 C 1,0 UV-I 0,4 C 63 % 87 % 11 % 1014,5 hPa 0,0 l/m 6,0 km/h (2 Bft) 0 min 0 min 9,0 km/h (2 Bft)
09.09.2010 15:32 21,5 C 17,2 C 1,0 UV-I 0,3 C 63 % 87 % 9 % 1014,5 hPa 0,0 l/m 6,0 km/h (2 Bft) 0 min 0 min 13,2 km/h (3 Bft)
09.09.2010 15:34 21,5 C 17,1 C 1,1 UV-I 0,2 C 63 % 85 % 6 % 1014,5 hPa 0,0 l/m 5,6 km/h (1 Bft) 0 min 0 min 13,2 km/h (3 Bft)
09.09.2010 15:36 21,5 C 17,1 C 1,1 UV-I 0,2 C 63 % 86 % 6 % 1014,5 hPa 0,0 l/m 5,2 km/h (1 Bft) 0 min 2 min 6,1 km/h (2 Bft)
09.09.2010 15:38 21,5 C 17,0 C 1,2 UV-I 0,1 C 63 % 85 % 3 % 1014,5 hPa 0,0 l/m 4,4 km/h (1 Bft) 0 min 2 min 6,1 km/h (2 Bft)
09.09.2010 15:40 21,5 C 16,9 C 1,2 UV-I 0,0 C 63 % 85 % 0 % 1014,5 hPa 0,0 l/m 4,0 km/h (1 Bft) 0 min 2 min 5,1 km/h (1 Bft)
09.09.2010 15:42 21,4 C 16,8 C 1,2 UV-I 0,0 C 63 % 85 % 0 % 1014,5 hPa 0,0 l/m 4,4 km/h (1 Bft) 0 min 2 min 5,1 km/h (1 Bft)
09.09.2010 15:44 21,4 C 16,8 C 1,2 UV-I 0,0 C 63 % 85 % 0 % 1014,5 hPa 0,0 l/m 3,6 km/h (1 Bft) 0 min 2 min 4,8 km/h (1 Bft)
09.09.2010 15:46 21,4 C 16,7 C 1,2 UV-I 0,0 C 63 % 86 % 0 % 1014,8 hPa 0,0 l/m 3,2 km/h (1 Bft) 0 min 2 min 0,0 km/h (0 Bft)
09.09.2010 15:48 21,4 C 16,7 C 1,3 UV-I 0,0 C 63 % 85 % 0 % 1014,8 hPa 0,0 l/m 4,0 km/h (1 Bft) 0 min 2 min 12,6 km/h (3 Bft)
09.09.2010 15:50 21,4 C 16,7 C 1,3 UV-I 0,0 C 63 % 85 % 0 % 1014,8 hPa 0,0 l/m 3,6 km/h (1 Bft) 0 min 2 min 12,6 km/h (3 Bft)
09.09.2010 15:52 21,4 C 16,6 C 1,3 UV-I 0,0 C 63 % 85 % 0 % 1014,8 hPa 0,0 l/m 2,8 km/h (1 Bft) 0 min 2 min 0,0 km/h (0 Bft)
09.09.2010 15:54 21,2 C 16,5 C 1,3 UV-I 0,0 C 63 % 85 % 0 % 1014,8 hPa 0,0 l/m 2,0 km/h (1 Bft) 0 min 0 min 0,0 km/h (0 Bft)
09.09.2010 15:56 21,4 C 16,5 C 1,3 UV-I 0,0 C 63 % 85 % 0 % 1014,8 hPa 0,0 l/m 2,0 km/h (1 Bft) 0 min 0 min 0,0 km/h (0 Bft)
09.09.2010 15:58 21,4 C 16,4 C 1,1 UV-I 0,0 C 63 % 85 % 0 % 1014,8 hPa 0,0 l/m 1,6 km/h (1 Bft) 0 min 0 min 3,5 km/h (1 Bft)
09.09.2010 16:00 21,2 C 16,4 C 1,1 UV-I 0,0 C 63 % 85 % 0 % 1014,8 hPa 0,0 l/m 1,2 km/h (1 Bft) 0 min 0 min 3,5 km/h (1 Bft)
09.09.2010 16:02 21,2 C 16,3 C 1,1 UV-I 0,0 C 63 % 85 % 0 % 1014,8 hPa 0,0 l/m 1,6 km/h (1 Bft) 0 min 0 min 3,5 km/h (1 Bft)
09.09.2010 16:04 21,2 C 16,2 C 1,2 UV-I 0,0 C 63 % 85 % 0 % 1014,8 hPa 0,0 l/m 2,8 km/h (1 Bft) 0 min 0 min 4,5 km/h (1 Bft)
09.09.2010 16:06 21,3 C 16,1 C 1,2 UV-I 0,0 C 63 % 84 % 0 % 1014,7 hPa 0,0 l/m 3,2 km/h (1 Bft) 0 min 0 min 6,1 km/h (2 Bft)
09.09.2010 16:08 21,3 C 16,1 C 1,0 UV-I 0,0 C 63 % 85 % 0 % 1014,7 hPa 0,0 l/m 4,0 km/h (1 Bft) 0 min 0 min 6,1 km/h (2 Bft)
09.09.2010 16:10 21,2 C 16,1 C 1,0 UV-I 0,0 C 63 % 84 % 0 % 1014,7 hPa 0,0 l/m 4,0 km/h (1 Bft) 0 min 0 min 3,9 km/h (1 Bft)
09.09.2010 16:12 21,2 C 16,1 C 1,0 UV-I 0,0 C 63 % 84 % 0 % 1014,7 hPa 0,0 l/m 3,2 km/h (1 Bft) 0 min 0 min 3,9 km/h (1 Bft)
09.09.2010 16:14 21,2 C 16,0 C 1,2 UV-I 0,0 C 63 % 85 % 0 % 1014,7 hPa 0,0 l/m 3,2 km/h (1 Bft) 0 min 0 min 4,8 km/h (1 Bft)
09.09.2010 16:16 21,2 C 16,0 C 1,2 UV-I 0,0 C 63 % 85 % 0 % 1014,7 hPa 0,0 l/m 2,4 km/h (1 Bft) 0 min 0 min 8,0 km/h (2 Bft)
09.09.2010 16:18 21,2 C 15,9 C 0,9 UV-I 0,0 C 63 % 85 % 0 % 1014,7 hPa 0,0 l/m 2,4 km/h (1 Bft) 0 min 0 min 8,0 km/h (2 Bft)
09.09.2010 16:20 21,2 C 15,9 C 0,9 UV-I 0,0 C 62 % 85 % 0 % 1014,7 hPa 0,0 l/m 2,0 km/h (1 Bft) 0 min 0 min 4,2 km/h (1 Bft)
09.09.2010 16:22 21,2 C 15,8 C 0,9 UV-I 0,0 C 62 % 85 % 0 % 1014,7 hPa 0,0 l/m 2,0 km/h (1 Bft) 0 min 0 min 0,0 km/h (0 Bft)
09.09.2010 16:26 21,1 C 15,8 C 0,9 UV-I 0,0 C 62 % 85 % 0 % 1014,8 hPa 0,0 l/m 1,2 km/h (1 Bft) 0 min 0 min 3,2 km/h (1 Bft)
09.09.2010 16:28 21,1 C 15,7 C 0,8 UV-I 0,0 C 62 % 85 % 0 % 1014,8 hPa 0,0 l/m 0,4 km/h (0 Bft) 0 min 0 min 3,2 km/h (1 Bft)
09.09.2010 16:30 21,1 C 15,7 C 0,8 UV-I 0,0 C 62 % 86 % 0 % 1014,8 hPa 0,0 l/m 0,8 km/h (0 Bft) 0 min 0 min 7,7 km/h (2 Bft)
09.09.2010 16:32 21,1 C 15,7 C 0,8 UV-I 0,0 C 63 % 86 % 0 % 1014,8 hPa 0,0 l/m 0,8 km/h (0 Bft) 0 min 0 min 7,7 km/h (2 Bft)
09.09.2010 16:34 21,0 C 15,7 C 0,9 UV-I 0,0 C 63 % 86 % 0 % 1014,8 hPa 0,0 l/m 0,8 km/h (0 Bft) 0 min 0 min 0,0 km/h (0 Bft)
09.09.2010 16:36 21,0 C 15,6 C 0,9 UV-I 0,0 C 62 % 86 % 0 % 1014,8 hPa 0,0 l/m 0,8 km/h (0 Bft) 0 min 0 min 0,0 km/h (0 Bft)
09.09.2010 16:38 21,0 C 15,7 C 1,2 UV-I 0,0 C 63 % 86 % 0 % 1014,8 hPa 0,0 l/m 0,8 km/h (0 Bft) 0 min 0 min 0,0 km/h (0 Bft)
09.09.2010 16:40 21,0 C 15,7 C 1,2 UV-I 0,0 C 63 % 86 % 0 % 1014,8 hPa 0,0 l/m 0,4 km/h (0 Bft) 0 min 0 min 3,2 km/h (1 Bft)
09.09.2010 16:42 21,0 C 15,7 C 1,2 UV-I 0,0 C 63 % 86 % 0 % 1014,8 hPa 0,0 l/m 0,4 km/h (0 Bft) 0 min 0 min 3,2 km/h (1 Bft)
09.09.2010 16:44 21,0 C 15,7 C 1,4 UV-I 0,1 C 63 % 87 % 3 % 1014,8 hPa 0,0 l/m 0,4 km/h (0 Bft) 0 min 0 min 0,0 km/h (0 Bft)
09.09.2010 16:46 21,0 C 15,7 C 1,4 UV-I 0,2 C 63 % 87 % 6 % 1014,8 hPa 0,0 l/m 0,4 km/h (0 Bft) 0 min 0 min 0,0 km/h (0 Bft)
09.09.2010 16:48 21,0 C 15,7 C 1,4 UV-I 0,3 C 63 % 87 % 9 % 1014,8 hPa 0,0 l/m 0,4 km/h (0 Bft) 0 min 0 min 0,0 km/h (0 Bft)
09.09.2010 16:50 20,9 C 15,9 C 1,4 UV-I 0,2 C 63 % 87 % 6 % 1014,8 hPa 0,0 l/m 0,4 km/h (0 Bft) 0 min 0 min 0,0 km/h (0 Bft)
09.09.2010 16:52 20,9 C 15,9 C 1,4 UV-I 0,3 C 63 % 87 % 9 % 1014,8 hPa 0,0 l/m 0,0 km/h (0 Bft) 0 min 0 min 0,0 km/h (0 Bft)
09.09.2010 16:54 20,9 C 15,9 C 1,2 UV-I 0,4 C 63 % 87 % 11 % 1014,8 hPa 0,0 l/m 0,0 km/h (0 Bft) 0 min 0 min 0,0 km/h (0 Bft)
09.09.2010 16:56 20,9 C 15,9 C 1,2 UV-I 0,4 C 63 % 87 % 11 % 1014,8 hPa 0,0 l/m 0,0 km/h (0 Bft) 0 min 0 min 0,0 km/h (0 Bft)
09.09.2010 16:58 20,9 C 15,9 C 1,3 UV-I 0,5 C 63 % 87 % 14 % 1014,8 hPa 0,0 l/m 0,0 km/h (0 Bft) 0 min 0 min 0,0 km/h (0 Bft)
09.09.2010 17:00 20,9 C 15,9 C 1,3 UV-I 0,6 C 63 % 87 % 17 % 1014,8 hPa 0,0 l/m 0,0 km/h (0 Bft) 0 min 0 min 0,0 km/h (0 Bft)
09.09.2010 17:02 20,9 C 15,9 C 1,3 UV-I 0,7 C 63 % 87 % 20 % 1014,8 hPa 0,0 l/m 0,0 km/h (0 Bft) 0 min 0 min 0,0 km/h (0 Bft)
09.09.2010 17:04 20,9 C 16,0 C 1,8 UV-I 0,7 C 63 % 87 % 20 % 1014,8 hPa 0,0 l/m 0,0 km/h (0 Bft) 0 min 0 min 0,0 km/h (0 Bft)
09.09.2010 17:06 20,9 C 16,1 C 1,8 UV-I 0,9 C 63 % 87 % 26 % 1014,6 hPa 0,0 l/m 0,0 km/h (0 Bft) 0 min 0 min 0,0 km/h (0 Bft)
09.09.2010 17:08 20,9 C 16,1 C 2,3 UV-I 1,1 C 63 % 87 % 31 % 1014,6 hPa 0,0 l/m 0,0 km/h (0 Bft) 0 min 0 min 0,0 km/h (0 Bft)
09.09.2010 17:10 20,9 C 16,2 C 2,3 UV-I 1,3 C 64 % 87 % 37 % 1014,6 hPa 0,0 l/m 0,4 km/h (0 Bft) 0 min 0 min 5,5 km/h (1 Bft)
09.09.2010 17:12 20,9 C 16,3 C 2,3 UV-I 1,5 C 64 % 87 % 43 % 1014,6 hPa 0,0 l/m 0,4 km/h (0 Bft) 0 min 0 min 5,5 km/h (1 Bft)
09.09.2010 17:14 20,9 C 16,4 C 2,7 UV-I 1,8 C 64 % 87 % 51 % 1014,6 hPa 0,0 l/m 0,4 km/h (0 Bft) 0 min 0 min 0,0 km/h (0 Bft)
09.09.2010 17:16 20,9 C 16,5 C 2,7 UV-I 2,2 C 64 % 87 % 63 % 1014,6 hPa 0,0 l/m 0,8 km/h (0 Bft) 0 min 0 min 0,0 km/h (0 Bft)
09.09.2010 17:18 21,0 C 16,8 C 3,0 UV-I 2,7 C 64 % 87 % 77 % 1014,6 hPa 0,0 l/m 0,8 km/h (0 Bft) 0 min 0 min 0,0 km/h (0 Bft)
09.09.2010 17:20 21,0 C 16,9 C 3,0 UV-I 3,2 C 64 % 86 % 91 % 1014,6 hPa 0,0 l/m 0,8 km/h (0 Bft) 2 min 0 min 0,0 km/h (0 Bft)
09.09.2010 17:22 21,0 C 17,0 C 3,0 UV-I 3,5 C 64 % 86 % 100 % 1014,6 hPa 0,0 l/m 0,4 km/h (0 Bft) 2 min 0 min 0,0 km/h (0 Bft)
09.09.2010 17:24 21,0 C 17,3 C 2,2 UV-I 3,2 C 64 % 86 % 91 % 1014,6 hPa 0,0 l/m 0,4 km/h (0 Bft) 2 min 0 min 0,0 km/h (0 Bft)
09.09.2010 17:26 21,1 C 17,2 C 2,2 UV-I 3,3 C 64 % 85 % 94 % 1015,5 hPa 0,0 l/m 0,4 km/h (0 Bft) 2 min 0 min 5,1 km/h (1 Bft)
09.09.2010 17:28 21,0 C 17,2 C 1,6 UV-I 3,1 C 64 % 85 % 89 % 1015,5 hPa 0,0 l/m 0,4 km/h (0 Bft) 2 min 0 min 5,1 km/h (1 Bft)
09.09.2010 17:34 21,1 C 17,2 C 1,6 UV-I 2,3 C 63 % 84 % 66 % 1015,5 hPa 0,0 l/m 0,8 km/h (0 Bft) 0 min 0 min 3,5 km/h (1 Bft)
09.09.2010 17:36 21,1 C 17,2 C 1,6 UV-I 2,1 C 63 % 84 % 60 % 1015,5 hPa 0,0 l/m 1,2 km/h (1 Bft) 0 min 0 min 0,0 km/h (0 Bft)
09.09.2010 17:38 21,1 C 17,3 C 1,4 UV-I 1,8 C 63 % 84 % 51 % 1015,5 hPa 0,0 l/m 0,8 km/h (0 Bft) 0 min 0 min 0,0 km/h (0 Bft)
09.09.2010 17:40 21,1 C 17,4 C 1,4 UV-I 1,9 C 63 % 84 % 54 % 1015,5 hPa 0,0 l/m 0,8 km/h (0 Bft) 0 min 0 min 5,1 km/h (1 Bft)
09.09.2010 17:42 21,2 C 17,6 C 1,4 UV-I 2,0 C 63 % 83 % 57 % 1015,5 hPa 0,0 l/m 1,2 km/h (1 Bft) 0 min 0 min 6,8 km/h (2 Bft)
09.09.2010 17:44 21,2 C 17,7 C 2,1 UV-I 2,5 C 63 % 83 % 71 % 1015,5 hPa 0,0 l/m 1,6 km/h (1 Bft) 0 min 0 min 6,8 km/h (2 Bft)
09.09.2010 17:48 21,2 C 18,0 C 2,1 UV-I 3,2 C 63 % 83 % 91 % 1015,6 hPa 0,0 l/m 1,6 km/h (1 Bft) 2 min 0 min 6,4 km/h (2 Bft)
09.09.2010 17:50 21,2 C 18,1 C 2,1 UV-I 3,6 C 63 % 83 % 100 % 1015,6 hPa 0,0 l/m 2,8 km/h (1 Bft) 2 min 0 min 5,5 km/h (1 Bft)
09.09.2010 17:52 21,2 C 18,3 C 2,1 UV-I 3,7 C 63 % 83 % 100 % 1015,6 hPa 0,0 l/m 2,8 km/h (1 Bft) 2 min 0 min 5,5 km/h (1 Bft)
09.09.2010 17:54 21,2 C 18,3 C 2,1 UV-I 4,1 C 63 % 83 % 100 % 1015,6 hPa 0,0 l/m 2,0 km/h (1 Bft) 2 min 0 min 5,5 km/h (1 Bft)
09.09.2010 17:56 21,2 C 18,4 C 2,1 UV-I 4,2 C 63 % 81 % 100 % 1015,6 hPa 0,0 l/m 3,2 km/h (1 Bft) 2 min 0 min 5,5 km/h (1 Bft)
09.09.2010 17:58 21,2 C 18,5 C 2,0 UV-I 4,1 C 63 % 81 % 100 % 1015,6 hPa 0,0 l/m 3,6 km/h (1 Bft) 2 min 0 min 5,5 km/h (1 Bft)
09.09.2010 18:00 21,2 C 18,5 C 2,0 UV-I 4,0 C 63 % 80 % 100 % 1015,6 hPa 0,0 l/m 4,0 km/h (1 Bft) 2 min 0 min 8,7 km/h (2 Bft)
09.09.2010 18:02 21,2 C 18,7 C 2,0 UV-I 3,6 C 63 % 80 % 100 % 1015,6 hPa 0,0 l/m 4,0 km/h (1 Bft) 2 min 0 min 8,7 km/h (2 Bft)
09.09.2010 18:04 21,2 C 18,7 C 2,0 UV-I 3,4 C 63 % 81 % 97 % 1015,6 hPa 0,0 l/m 4,0 km/h (1 Bft) 2 min 0 min 3,9 km/h (1 Bft)
09.09.2010 18:06 21,3 C 18,7 C 2,0 UV-I 3,3 C 63 % 81 % 94 % 1015,8 hPa 0,0 l/m 4,0 km/h (1 Bft) 2 min 0 min 7,7 km/h (2 Bft)
09.09.2010 18:08 21,3 C 18,7 C 1,8 UV-I 3,4 C 63 % 80 % 97 % 1015,8 hPa 0,0 l/m 3,6 km/h (1 Bft) 2 min 0 min 7,7 km/h (2 Bft)
09.09.2010 18:10 21,2 C 18,7 C 1,8 UV-I 3,4 C 63 % 80 % 97 % 1015,8 hPa 0,0 l/m 2,8 km/h (1 Bft) 2 min 0 min 6,1 km/h (2 Bft)
09.09.2010 18:12 21,3 C 18,6 C 1,8 UV-I 3,4 C 63 % 80 % 97 % 1015,8 hPa 0,0 l/m 2,8 km/h (1 Bft) 2 min 0 min 4,2 km/h (1 Bft)
09.09.2010 18:14 21,2 C 18,6 C 1,8 UV-I 3,3 C 63 % 80 % 94 % 1015,8 hPa 0,0 l/m 3,6 km/h (1 Bft) 2 min 0 min 7,7 km/h (2 Bft)
09.09.2010 18:16 21,3 C 18,6 C 1,8 UV-I 3,1 C 63 % 80 % 89 % 1015,8 hPa 0,0 l/m 4,4 km/h (1 Bft) 2 min 0 min 7,7 km/h (2 Bft)
09.09.2010 18:18 21,2 C 18,7 C 1,7 UV-I 2,9 C 63 % 80 % 83 % 1015,8 hPa 0,0 l/m 4,8 km/h (1 Bft) 2 min 0 min 6,4 km/h (2 Bft)
09.09.2010 18:20 21,2 C 18,4 C 1,7 UV-I 2,8 C 63 % 80 % 80 % 1015,8 hPa 0,0 l/m 4,8 km/h (1 Bft) 2 min 0 min 4,2 km/h (1 Bft)
09.09.2010 18:22 21,2 C 18,4 C 1,7 UV-I 2,3 C 63 % 80 % 66 % 1015,8 hPa 0,0 l/m 4,8 km/h (1 Bft) 2 min 0 min 3,9 km/h (1 Bft)
09.09.2010 18:24 21,2 C 18,3 C 1,4 UV-I 1,7 C 63 % 80 % 49 % 1015,8 hPa 0,0 l/m 4,0 km/h (1 Bft) 0 min 0 min 3,9 km/h (1 Bft)
09.09.2010 18:26 21,2 C 18,2 C 1,4 UV-I 1,4 C 63 % 80 % 40 % 1015,6 hPa 0,0 l/m 3,2 km/h (1 Bft) 0 min 0 min 0,0 km/h (0 Bft)
09.09.2010 18:28 21,2 C 18,3 C 1,2 UV-I 0,8 C 63 % 80 % 23 % 1015,6 hPa 0,0 l/m 2,4 km/h (1 Bft) 0 min 0 min 3,2 km/h (1 Bft)
09.09.2010 18:30 21,3 C 18,0 C 1,2 UV-I 0,7 C 63 % 81 % 20 % 1015,6 hPa 0,0 l/m 1,6 km/h (1 Bft) 0 min 0 min 3,2 km/h (1 Bft)
09.09.2010 18:32 21,2 C 18,0 C 1,2 UV-I 0,5 C 63 % 81 % 14 % 1015,6 hPa 0,0 l/m 1,2 km/h (1 Bft) 0 min 0 min 0,0 km/h (0 Bft)
09.09.2010 18:34 21,2 C 17,9 C 1,0 UV-I 0,3 C 63 % 81 % 9 % 1015,6 hPa 0,0 l/m 0,8 km/h (0 Bft) 0 min 0 min 0,0 km/h (0 Bft)
09.09.2010 18:36 21,2 C 17,9 C 1,0 UV-I 0,2 C 63 % 81 % 6 % 1015,6 hPa 0,0 l/m 0,8 km/h (0 Bft) 0 min 0 min 0,0 km/h (0 Bft)
09.09.2010 18:38 21,2 C 17,9 C 0,9 UV-I 0,0 C 63 % 82 % 0 % 1015,6 hPa 0,0 l/m 0,8 km/h (0 Bft) 0 min 0 min 0,0 km/h (0 Bft)
09.09.2010 18:40 21,3 C 17,8 C 0,9 UV-I 0,0 C 63 % 82 % 0 % 1015,6 hPa 0,0 l/m 0,4 km/h (0 Bft) 0 min 0 min 0,0 km/h (0 Bft)
09.09.2010 18:42 21,3 C 17,8 C 0,9 UV-I 0,0 C 63 % 82 % 0 % 1015,6 hPa 0,0 l/m 0,4 km/h (0 Bft) 0 min 0 min 0,0 km/h (0 Bft)
09.09.2010 18:44 21,3 C 17,7 C 0,9 UV-I 0,0 C 63 % 82 % 0 % 1015,6 hPa 0,0 l/m 0,4 km/h (0 Bft) 0 min 0 min 0,0 km/h (0 Bft)
09.09.2010 18:48 21,3 C 17,7 C 0,6 UV-I 0,0 C 63 % 83 % 0 % 1015,6 hPa 0,0 l/m 0,4 km/h (0 Bft) 0 min 0 min 3,9 km/h (1 Bft)
09.09.2010 18:50 21,3 C 17,6 C 0,6 UV-I 0,0 C 63 % 83 % 0 % 1015,6 hPa 0,0 l/m 0,4 km/h (0 Bft) 0 min 0 min 0,0 km/h (0 Bft)
09.09.2010 18:52 21,2 C 17,6 C 0,6 UV-I 0,0 C 63 % 83 % 0 % 1015,6 hPa 0,0 l/m 0,4 km/h (0 Bft) 0 min 0 min 0,0 km/h (0 Bft)
09.09.2010 18:54 21,2 C 17,6 C 0,6 UV-I 0,0 C 63 % 83 % 0 % 1015,6 hPa 0,0 l/m 0,4 km/h (0 Bft) 0 min 0 min 0,0 km/h (0 Bft)
09.09.2010 18:56 21,2 C 17,5 C 0,6 UV-I 0,0 C 63 % 83 % 0 % 1015,6 hPa 0,0 l/m 0,4 km/h (0 Bft) 0 min 0 min 0,0 km/h (0 Bft)
09.09.2010 19:00 21,2 C 17,4 C 0,6 UV-I 0,0 C 63 % 83 % 0 % 1015,6 hPa 0,0 l/m 0,0 km/h (0 Bft) 0 min 0 min 0,0 km/h (0 Bft)
09.09.2010 19:02 21,2 C 17,5 C 0,6 UV-I 0,0 C 63 % 83 % 0 % 1015,6 hPa 0,0 l/m 0,0 km/h (0 Bft) 0 min 0 min 0,0 km/h (0 Bft)
09.09.2010 19:04 21,2 C 17,5 C 0,6 UV-I 0,0 C 63 % 83 % 0 % 1015,6 hPa 0,0 l/m 0,0 km/h (0 Bft) 0 min 0 min 0,0 km/h (0 Bft)
09.09.2010 19:06 21,2 C 17,5 C 0,6 UV-I 0,0 C 63 % 83 % 0 % 1015,4 hPa 0,0 l/m 0,4 km/h (0 Bft) 0 min 0 min 0,0 km/h (0 Bft)
09.09.2010 19:08 21,2 C 17,4 C 0,6 UV-I 0,0 C 63 % 83 % 0 % 1015,4 hPa 0,0 l/m 0,4 km/h (0 Bft) 0 min 0 min 0,0 km/h (0 Bft)
09.09.2010 19:10 21,2 C 17,4 C 0,6 UV-I 0,0 C 63 % 84 % 0 % 1015,4 hPa 0,0 l/m 0,4 km/h (0 Bft) 0 min 0 min 0,0 km/h (0 Bft)
09.09.2010 19:12 21,2 C 17,3 C 0,6 UV-I 0,0 C 63 % 84 % 0 % 1015,4 hPa 0,0 l/m 0,4 km/h (0 Bft) 0 min 0 min 0,0 km/h (0 Bft)
09.09.2010 19:14 21,1 C 17,3 C 0,6 UV-I 0,0 C 63 % 84 % 0 % 1015,4 hPa 0,0 l/m 0,8 km/h (0 Bft) 0 min 0 min 0,0 km/h (0 Bft)
09.09.2010 19:16 21,1 C 17,3 C 0,6 UV-I 0,0 C 63 % 84 % 0 % 1015,4 hPa 0,0 l/m 0,8 km/h (0 Bft) 0 min 0 min 4,2 km/h (1 Bft)
09.09.2010 19:20 21,1 C 17,2 C 0,5 UV-I 0,0 C 63 % 84 % 0 % 1015,4 hPa 0,0 l/m 0,8 km/h (0 Bft) 0 min 0 min 0,0 km/h (0 Bft)
09.09.2010 19:22 21,1 C 17,3 C 0,5 UV-I 0,0 C 64 % 84 % 0 % 1015,4 hPa 0,0 l/m 1,2 km/h (1 Bft) 0 min 0 min 5,8 km/h (2 Bft)
09.09.2010 19:24 21,1 C 17,3 C 0,4 UV-I 0,0 C 63 % 84 % 0 % 1015,4 hPa 0,0 l/m 0,8 km/h (0 Bft) 0 min 0 min 5,8 km/h (2 Bft)
09.09.2010 19:26 21,1 C 17,2 C 0,4 UV-I 0,0 C 64 % 84 % 0 % 1015,8 hPa 0,0 l/m 0,8 km/h (0 Bft) 0 min 0 min 5,1 km/h (1 Bft)
09.09.2010 19:28 21,0 C 17,1 C 0,4 UV-I 0,0 C 64 % 84 % 0 % 1015,8 hPa 0,0 l/m 0,8 km/h (0 Bft) 0 min 0 min 6,4 km/h (2 Bft)
09.09.2010 19:30 21,0 C 17,1 C 0,4 UV-I 0,0 C 64 % 84 % 0 % 1015,8 hPa 0,0 l/m 1,2 km/h (1 Bft) 0 min 0 min 6,4 km/h (2 Bft)
09.09.2010 19:32 21,0 C 17,1 C 0,4 UV-I 0,0 C 64 % 84 % 0 % 1015,8 hPa 0,0 l/m 1,2 km/h (1 Bft) 0 min 0 min 3,9 km/h (1 Bft)
09.09.2010 19:34 21,0 C 17,0 C 0,3 UV-I 0,0 C 64 % 84 % 0 % 1015,8 hPa 0,0 l/m 0,8 km/h (0 Bft) 0 min 0 min 0,0 km/h (0 Bft)
09.09.2010 19:36 21,0 C 17,1 C 0,3 UV-I 0,0 C 64 % 84 % 0 % 1015,8 hPa 0,0 l/m 0,8 km/h (0 Bft) 0 min 0 min 0,0 km/h (0 Bft)
09.09.2010 19:38 21,0 C 16,9 C 0,3 UV-I 0,0 C 64 % 84 % 0 % 1015,8 hPa 0,0 l/m 0,8 km/h (0 Bft) 0 min 0 min 0,0 km/h (0 Bft)
09.09.2010 19:40 21,0 C 16,9 C 0,3 UV-I 0,0 C 64 % 84 % 0 % 1015,8 hPa 0,0 l/m 0,4 km/h (0 Bft) 0 min 0 min 0,0 km/h (0 Bft)
09.09.2010 19:42 21,0 C 16,9 C 0,3 UV-I 0,0 C 64 % 84 % 0 % 1015,8 hPa 0,0 l/m 0,0 km/h (0 Bft) 0 min 0 min 0,0 km/h (0 Bft)
09.09.2010 19:44 20,9 C 16,8 C 0,2 UV-I 0,0 C 64 % 84 % 0 % 1015,8 hPa 0,0 l/m 0,0 km/h (0 Bft) 0 min 0 min 0,0 km/h (0 Bft)
09.09.2010 19:46 20,9 C 16,8 C 0,2 UV-I 0,0 C 64 % 84 % 0 % 1016,1 hPa 0,0 l/m 0,0 km/h (0 Bft) 0 min 0 min 0,0 km/h (0 Bft)
09.09.2010 19:48 20,9 C 16,7 C 0,2 UV-I 0,0 C 64 % 84 % 0 % 1016,1 hPa 0,0 l/m 0,4 km/h (0 Bft) 0 min 0 min 3,5 km/h (1 Bft)
09.09.2010 19:50 20,9 C 16,7 C 0,2 UV-I 0,0 C 64 % 84 % 0 % 1016,1 hPa 0,0 l/m 0,4 km/h (0 Bft) 0 min 0 min 3,5 km/h (1 Bft)
09.09.2010 19:52 20,9 C 16,7 C 0,2 UV-I 0,0 C 64 % 84 % 0 % 1016,1 hPa 0,0 l/m 0,4 km/h (0 Bft) 0 min 0 min 0,0 km/h (0 Bft)
09.09.2010 19:54 20,8 C 16,7 C 0,2 UV-I 0,0 C 64 % 84 % 0 % 1016,1 hPa 0,0 l/m 0,4 km/h (0 Bft) 0 min 0 min 0,0 km/h (0 Bft)
09.09.2010 19:56 20,8 C 16,6 C 0,2 UV-I 0,0 C 64 % 84 % 0 % 1016,1 hPa 0,0 l/m 0,0 km/h (0 Bft) 0 min 0 min 0,0 km/h (0 Bft)
09.09.2010 19:58 20,8 C 16,5 C 0,2 UV-I 0,0 C 64 % 84 % 0 % 1016,1 hPa 0,0 l/m 0,0 km/h (0 Bft) 0 min 0 min 0,0 km/h (0 Bft)
09.09.2010 20:00 20,8 C 16,5 C 0,2 UV-I 0,0 C 64 % 84 % 0 % 1016,1 hPa 0,0 l/m 0,0 km/h (0 Bft) 0 min 0 min 0,0 km/h (0 Bft)
09.09.2010 20:02 20,8 C 16,5 C 0,2 UV-I 0,0 C 64 % 85 % 0 % 1016,1 hPa 0,0 l/m 0,0 km/h (0 Bft) 0 min 0 min 0,0 km/h (0 Bft)
09.09.2010 20:04 20,8 C 16,5 C 0,2 UV-I 0,0 C 64 % 85 % 0 % 1016,1 hPa 0,0 l/m 0,0 km/h (0 Bft) 0 min 0 min 0,0 km/h (0 Bft)
09.09.2010 20:06 20,8 C 16,4 C 0,2 UV-I 0,0 C 64 % 85 % 0 % 1016,5 hPa 0,0 l/m 0,0 km/h (0 Bft) 0 min 0 min 3,9 km/h (1 Bft)
09.09.2010 20:08 20,8 C 16,4 C 0,1 UV-I 0,0 C 64 % 85 % 0 % 1016,5 hPa 0,0 l/m 0,4 km/h (0 Bft) 0 min 0 min 3,9 km/h (1 Bft)
09.09.2010 20:10 20,8 C 16,3 C 0,1 UV-I 0,0 C 64 % 85 % 0 % 1016,5 hPa 0,0 l/m 0,4 km/h (0 Bft) 0 min 0 min 0,0 km/h (0 Bft)
09.09.2010 20:12 20,8 C 16,3 C 0,1 UV-I 0,0 C 64 % 85 % 0 % 1016,5 hPa 0,0 l/m 0,4 km/h (0 Bft) 0 min 0 min 0,0 km/h (0 Bft)
09.09.2010 20:14 20,8 C 16,3 C 0,1 UV-I 0,0 C 64 % 85 % 0 % 1016,5 hPa 0,0 l/m 0,4 km/h (0 Bft) 0 min 0 min 0,0 km/h (0 Bft)
09.09.2010 20:16 20,8 C 16,2 C 0,1 UV-I 0,0 C 64 % 85 % 0 % 1016,5 hPa 0,0 l/m 0,4 km/h (0 Bft) 0 min 0 min 0,0 km/h (0 Bft)
09.09.2010 20:18 20,7 C 16,2 C 0,1 UV-I 0,0 C 64 % 85 % 0 % 1016,5 hPa 0,0 l/m 0,4 km/h (0 Bft) 0 min 0 min 0,0 km/h (0 Bft)
09.09.2010 20:20 20,7 C 16,3 C 0,1 UV-I 0,0 C 64 % 85 % 0 % 1016,5 hPa 0,0 l/m 0,4 km/h (0 Bft) 0 min 0 min 0,0 km/h (0 Bft)
09.09.2010 20:22 20,7 C 16,1 C 0,1 UV-I 0,0 C 64 % 85 % 0 % 1016,5 hPa 0,0 l/m 0,0 km/h (0 Bft) 0 min 0 min 0,0 km/h (0 Bft)
09.09.2010 20:24 20,7 C 16,1 C 0,1 UV-I 0,0 C 64 % 85 % 0 % 1016,5 hPa 0,0 l/m 0,0 km/h (0 Bft) 0 min 0 min 0,0 km/h (0 Bft)
09.09.2010 20:26 20,6 C 16,0 C 0,1 UV-I 0,0 C 64 % 85 % 0 % 1016,8 hPa 0,0 l/m 0,0 km/h (0 Bft) 0 min 0 min 0,0 km/h (0 Bft)
09.09.2010 20:28 20,6 C 16,0 C 0,1 UV-I 0,0 C 64 % 85 % 0 % 1016,8 hPa 0,0 l/m 0,0 km/h (0 Bft) 0 min 0 min 0,0 km/h (0 Bft)
09.09.2010 20:30 20,6 C 16,0 C 0,1 UV-I 0,0 C 64 % 85 % 0 % 1016,8 hPa 0,0 l/m 0,0 km/h (0 Bft) 0 min 0 min 0,0 km/h (0 Bft)
09.09.2010 20:32 20,6 C 16,0 C 0,1 UV-I 0,0 C 64 % 85 % 0 % 1016,8 hPa 0,0 l/m 0,0 km/h (0 Bft) 0 min 0 min 0,0 km/h (0 Bft)
09.09.2010 20:34 20,6 C 15,9 C 0,1 UV-I 0,0 C 64 % 85 % 0 % 1016,8 hPa 0,0 l/m 0,0 km/h (0 Bft) 0 min 0 min 0,0 km/h (0 Bft)
09.09.2010 20:36 20,6 C 15,8 C 0,1 UV-I 0,0 C 64 % 85 % 0 % 1016,8 hPa 0,0 l/m 0,0 km/h (0 Bft) 0 min 0 min 0,0 km/h (0 Bft)
09.09.2010 20:38 20,6 C 15,9 C 0,1 UV-I 0,0 C 64 % 86 % 0 % 1016,8 hPa 0,0 l/m 0,0 km/h (0 Bft) 0 min 0 min 0,0 km/h (0 Bft)
09.09.2010 20:40 20,6 C 15,8 C 0,1 UV-I 0,0 C 64 % 86 % 0 % 1016,8 hPa 0,0 l/m 0,0 km/h (0 Bft) 0 min 0 min 0,0 km/h (0 Bft)
09.09.2010 20:42 20,6 C 15,7 C 0,1 UV-I 0,0 C 64 % 86 % 0 % 1016,8 hPa 0,0 l/m 0,0 km/h (0 Bft) 0 min 0 min 0,0 km/h (0 Bft)
09.09.2010 20:44 20,6 C 15,6 C 0,1 UV-I 0,0 C 64 % 86 % 0 % 1016,8 hPa 0,0 l/m 0,0 km/h (0 Bft) 0 min 0 min 0,0 km/h (0 Bft)
09.09.2010 20:46 20,5 C 15,7 C 0,1 UV-I 0,0 C 64 % 86 % 0 % 1017,2 hPa 0,0 l/m 0,0 km/h (0 Bft) 0 min 0 min 0,0 km/h (0 Bft)
09.09.2010 20:48 20,5 C 15,6 C 0,1 UV-I 0,0 C 64 % 86 % 0 % 1017,2 hPa 0,0 l/m 0,0 km/h (0 Bft) 0 min 0 min 0,0 km/h (0 Bft)
09.09.2010 20:50 20,5 C 15,5 C 0,1 UV-I 0,0 C 64 % 86 % 0 % 1017,2 hPa 0,0 l/m 0,0 km/h (0 Bft) 0 min 0 min 0,0 km/h (0 Bft)
09.09.2010 20:52 20,5 C 15,5 C 0,1 UV-I 0,0 C 65 % 86 % 0 % 1017,2 hPa 0,0 l/m 0,0 km/h (0 Bft) 0 min 0 min 0,0 km/h (0 Bft)
09.09.2010 20:54 20,5 C 15,4 C 0,1 UV-I 0,0 C 64 % 87 % 0 % 1017,2 hPa 0,0 l/m 0,0 km/h (0 Bft) 0 min 0 min 0,0 km/h (0 Bft)
09.09.2010 20:56 20,5 C 15,5 C 0,1 UV-I 0,0 C 65 % 87 % 0 % 1017,2 hPa 0,0 l/m 0,0 km/h (0 Bft) 0 min 0 min 0,0 km/h (0 Bft)
09.09.2010 20:58 20,5 C 15,4 C 0,1 UV-I 0,0 C 65 % 87 % 0 % 1017,2 hPa 0,0 l/m 0,0 km/h (0 Bft) 0 min 0 min 0,0 km/h (0 Bft)
09.09.2010 21:00 20,5 C 15,3 C 0,1 UV-I 0,0 C 65 % 87 % 0 % 1017,2 hPa 0,0 l/m 0,0 km/h (0 Bft) 0 min 0 min 0,0 km/h (0 Bft)
09.09.2010 21:04 20,4 C 15,3 C 0,1 UV-I 0,0 C 65 % 87 % 0 % 1017,2 hPa 0,0 l/m 0,0 km/h (0 Bft) 0 min 0 min 3,9 km/h (1 Bft)
09.09.2010 21:06 20,4 C 15,2 C 0,1 UV-I 0,0 C 65 % 87 % 0 % 1017,3 hPa 0,0 l/m 0,0 km/h (0 Bft) 0 min 0 min 0,0 km/h (0 Bft)
09.09.2010 21:10 20,4 C 15,2 C 0,1 UV-I 0,0 C 65 % 88 % 0 % 1017,3 hPa 0,0 l/m 0,4 km/h (0 Bft) 0 min 0 min 0,0 km/h (0 Bft)
09.09.2010 21:12 20,4 C 15,2 C 0,1 UV-I 0,0 C 65 % 88 % 0 % 1017,3 hPa 0,0 l/m 0,4 km/h (0 Bft) 0 min 0 min 0,0 km/h (0 Bft)
09.09.2010 21:14 20,4 C 15,1 C 0,1 UV-I 0,0 C 65 % 88 % 0 % 1017,3 hPa 0,0 l/m 0,4 km/h (0 Bft) 0 min 0 min 0,0 km/h (0 Bft)
09.09.2010 21:16 20,4 C 15,1 C 0,1 UV-I 0,0 C 65 % 88 % 0 % 1017,3 hPa 0,0 l/m 0,0 km/h (0 Bft) 0 min 0 min 0,0 km/h (0 Bft)
09.09.2010 21:18 20,4 C 15,1 C 0,1 UV-I 0,0 C 65 % 88 % 0 % 1017,3 hPa 0,0 l/m 0,0 km/h (0 Bft) 0 min 0 min 0,0 km/h (0 Bft)
09.09.2010 21:20 20,4 C 15,0 C 0,1 UV-I 0,0 C 65 % 88 % 0 % 1017,3 hPa 0,0 l/m 0,0 km/h (0 Bft) 0 min 0 min 0,0 km/h (0 Bft)
09.09.2010 21:22 20,4 C 15,1 C 0,1 UV-I 0,0 C 65 % 88 % 0 % 1017,3 hPa 0,0 l/m 0,0 km/h (0 Bft) 0 min 0 min 0,0 km/h (0 Bft)
09.09.2010 21:24 20,4 C 15,0 C 0,1 UV-I 0,0 C 65 % 88 % 0 % 1017,3 hPa 0,0 l/m 0,0 km/h (0 Bft) 0 min 0 min 0,0 km/h (0 Bft)
09.09.2010 21:26 20,4 C 15,0 C 0,1 UV-I 0,0 C 65 % 89 % 0 % 1017,1 hPa 0,0 l/m 0,0 km/h (0 Bft) 0 min 0 min 0,0 km/h (0 Bft)
09.09.2010 21:28 20,4 C 14,9 C 0,1 UV-I 0,0 C 65 % 88 % 0 % 1017,1 hPa 0,0 l/m 0,0 km/h (0 Bft) 0 min 0 min 0,0 km/h (0 Bft)
09.09.2010 21:30 20,4 C 14,8 C 0,1 UV-I 0,0 C 65 % 88 % 0 % 1017,1 hPa 0,0 l/m 0,0 km/h (0 Bft) 0 min 0 min 0,0 km/h (0 Bft)
09.09.2010 21:32 20,2 C 14,8 C 0,1 UV-I 0,0 C 65 % 88 % 0 % 1017,1 hPa 0,0 l/m 0,0 km/h (0 Bft) 0 min 0 min 0,0 km/h (0 Bft)
09.09.2010 21:34 20,2 C 14,9 C 0,1 UV-I 0,0 C 65 % 89 % 0 % 1017,1 hPa 0,0 l/m 0,0 km/h (0 Bft) 0 min 0 min 4,2 km/h (1 Bft)
09.09.2010 21:36 20,4 C 14,8 C 0,1 UV-I 0,0 C 65 % 89 % 0 % 1017,1 hPa 0,0 l/m 0,0 km/h (0 Bft) 0 min 0 min 4,2 km/h (1 Bft)
09.09.2010 21:38 20,3 C 14,8 C 0,1 UV-I 0,0 C 65 % 89 % 0 % 1017,1 hPa 0,0 l/m 0,0 km/h (0 Bft) 0 min 0 min 0,0 km/h (0 Bft)
09.09.2010 21:40 20,2 C 14,7 C 0,1 UV-I 0,0 C 65 % 89 % 0 % 1017,1 hPa 0,0 l/m 0,0 km/h (0 Bft) 0 min 0 min 0,0 km/h (0 Bft)
09.09.2010 21:42 20,3 C 14,7 C 0,1 UV-I 0,0 C 65 % 89 % 0 % 1017,1 hPa 0,0 l/m 0,0 km/h (0 Bft) 0 min 0 min 0,0 km/h (0 Bft)
09.09.2010 21:44 20,3 C 14,6 C 0,1 UV-I 0,0 C 65 % 89 % 0 % 1017,1 hPa 0,0 l/m 0,0 km/h (0 Bft) 0 min 0 min 0,0 km/h (0 Bft)
09.09.2010 21:46 20,3 C 14,7 C 0,1 UV-I 0,0 C 65 % 89 % 0 % 1017,2 hPa 0,0 l/m 0,0 km/h (0 Bft) 0 min 0 min 0,0 km/h (0 Bft)
09.09.2010 21:48 20,3 C 14,6 C 0,1 UV-I 0,0 C 65 % 89 % 0 % 1017,2 hPa 0,0 l/m 0,0 km/h (0 Bft) 0 min 0 min 0,0 km/h (0 Bft)
09.09.2010 21:50 20,2 C 14,6 C 0,1 UV-I 0,0 C 65 % 89 % 0 % 1017,2 hPa 0,0 l/m 0,0 km/h (0 Bft) 0 min 0 min 0,0 km/h (0 Bft)
09.09.2010 21:52 20,3 C 14,5 C 0,1 UV-I 0,0 C 65 % 89 % 0 % 1017,2 hPa 0,0 l/m 0,4 km/h (0 Bft) 0 min 0 min 4,5 km/h (1 Bft)
09.09.2010 21:54 20,2 C 14,5 C 0,1 UV-I 0,0 C 65 % 89 % 0 % 1017,2 hPa 0,0 l/m 0,4 km/h (0 Bft) 0 min 0 min 4,5 km/h (1 Bft)
09.09.2010 21:56 20,2 C 14,5 C 0,1 UV-I 0,0 C 65 % 89 % 0 % 1017,2 hPa 0,0 l/m 0,4 km/h (0 Bft) 0 min 0 min 0,0 km/h (0 Bft)
09.09.2010 21:58 20,2 C 14,4 C 0,1 UV-I 0,0 C 65 % 89 % 0 % 1017,2 hPa 0,0 l/m 0,8 km/h (0 Bft) 0 min 0 min 3,2 km/h (1 Bft)
09.09.2010 22:02 20,2 C 14,5 C 0,1 UV-I 0,0 C 64 % 89 % 0 % 1017,2 hPa 0,0 l/m 0,8 km/h (0 Bft) 0 min 0 min 3,2 km/h (1 Bft)
09.09.2010 22:04 20,2 C 14,4 C 0,1 UV-I 0,0 C 64 % 89 % 0 % 1017,2 hPa 0,0 l/m 0,4 km/h (0 Bft) 0 min 0 min 0,0 km/h (0 Bft)
09.09.2010 22:06 20,2 C 14,4 C 0,1 UV-I 0,0 C 65 % 89 % 0 % 1017,8 hPa 0,0 l/m 0,4 km/h (0 Bft) 0 min 0 min 0,0 km/h (0 Bft)
09.09.2010 22:08 20,2 C 14,4 C 0,1 UV-I 0,0 C 64 % 89 % 0 % 1017,8 hPa 0,0 l/m 0,0 km/h (0 Bft) 0 min 0 min 0,0 km/h (0 Bft)
09.09.2010 22:10 20,2 C 14,4 C 0,1 UV-I 0,0 C 64 % 89 % 0 % 1017,8 hPa 0,0 l/m 0,0 km/h (0 Bft) 0 min 0 min 0,0 km/h (0 Bft)
09.09.2010 22:12 20,2 C 14,3 C 0,1 UV-I 0,0 C 64 % 89 % 0 % 1017,8 hPa 0,0 l/m 0,0 km/h (0 Bft) 0 min 0 min 0,0 km/h (0 Bft)
09.09.2010 22:14 20,1 C 14,3 C 0,1 UV-I 0,0 C 64 % 89 % 0 % 1017,8 hPa 0,0 l/m 0,0 km/h (0 Bft) 0 min 0 min 0,0 km/h (0 Bft)
09.09.2010 22:16 20,1 C 14,3 C 0,1 UV-I 0,0 C 64 % 90 % 0 % 1017,8 hPa 0,0 l/m 0,0 km/h (0 Bft) 0 min 0 min 0,0 km/h (0 Bft)
09.09.2010 22:18 20,1 C 14,3 C 0,1 UV-I 0,0 C 64 % 89 % 0 % 1017,8 hPa 0,0 l/m 0,4 km/h (0 Bft) 0 min 0 min 0,0 km/h (0 Bft)
09.09.2010 22:20 20,1 C 14,3 C 0,1 UV-I 0,0 C 64 % 90 % 0 % 1017,8 hPa 0,0 l/m 0,4 km/h (0 Bft) 0 min 0 min 0,0 km/h (0 Bft)
09.09.2010 22:22 20,1 C 14,3 C 0,1 UV-I 0,0 C 64 % 90 % 0 % 1017,8 hPa 0,0 l/m 0,4 km/h (0 Bft) 0 min 0 min 0,0 km/h (0 Bft)
09.09.2010 22:24 20,1 C 14,3 C 0,1 UV-I 0,0 C 64 % 90 % 0 % 1017,8 hPa 0,0 l/m 0,4 km/h (0 Bft) 0 min 2 min 3,9 km/h (1 Bft)
09.09.2010 22:26 20,1 C 14,2 C 0,1 UV-I 0,0 C 64 % 90 % 0 % 1017,5 hPa 0,0 l/m 0,8 km/h (0 Bft) 0 min 0 min 4,2 km/h (1 Bft)
09.09.2010 22:28 20,0 C 14,2 C 0,1 UV-I 0,0 C 64 % 90 % 0 % 1017,5 hPa 0,0 l/m 0,4 km/h (0 Bft) 0 min 0 min 4,2 km/h (1 Bft)
09.09.2010 22:30 20,0 C 14,2 C 0,1 UV-I 0,0 C 64 % 90 % 0 % 1017,5 hPa 0,0 l/m 0,8 km/h (0 Bft) 0 min 0 min 4,5 km/h (1 Bft)
09.09.2010 22:32 20,0 C 14,2 C 0,1 UV-I 0,0 C 64 % 90 % 0 % 1017,5 hPa 0,0 l/m 0,8 km/h (0 Bft) 0 min 0 min 0,0 km/h (0 Bft)
09.09.2010 22:34 20,0 C 14,2 C 0,1 UV-I 0,0 C 64 % 90 % 0 % 1017,5 hPa 0,0 l/m 0,8 km/h (0 Bft) 0 min 0 min 0,0 km/h (0 Bft)
09.09.2010 22:36 20,0 C 14,2 C 0,1 UV-I 0,0 C 64 % 90 % 0 % 1017,5 hPa 0,0 l/m 0,4 km/h (0 Bft) 0 min 0 min 0,0 km/h (0 Bft)
09.09.2010 22:38 20,0 C 14,3 C 0,1 UV-I 0,0 C 64 % 90 % 0 % 1017,5 hPa 0,0 l/m 0,4 km/h (0 Bft) 0 min 0 min 3,9 km/h (1 Bft)
09.09.2010 22:40 20,0 C 14,3 C 0,1 UV-I 0,0 C 64 % 90 % 0 % 1017,5 hPa 0,0 l/m 0,8 km/h (0 Bft) 0 min 0 min 4,2 km/h (1 Bft)
09.09.2010 22:42 20,0 C 14,2 C 0,1 UV-I 0,0 C 64 % 90 % 0 % 1017,5 hPa 0,0 l/m 0,4 km/h (0 Bft) 0 min 0 min 4,2 km/h (1 Bft)
09.09.2010 22:44 20,0 C 14,2 C 0,1 UV-I 0,0 C 64 % 90 % 0 % 1017,5 hPa 0,0 l/m 0,8 km/h (0 Bft) 0 min 0 min 3,9 km/h (1 Bft)
09.09.2010 22:46 20,0 C 14,3 C 0,1 UV-I 0,0 C 64 % 90 % 0 % 1017,6 hPa 0,0 l/m 0,8 km/h (0 Bft) 0 min 0 min 3,9 km/h (1 Bft)
09.09.2010 22:48 20,0 C 14,3 C 0,1 UV-I 0,0 C 64 % 90 % 0 % 1017,6 hPa 0,0 l/m 0,8 km/h (0 Bft) 0 min 0 min 0,0 km/h (0 Bft)
09.09.2010 22:50 20,0 C 14,3 C 0,1 UV-I 0,0 C 64 % 90 % 0 % 1017,6 hPa 0,0 l/m 0,4 km/h (0 Bft) 0 min 0 min 0,0 km/h (0 Bft)
09.09.2010 22:52 20,0 C 14,3 C 0,1 UV-I 0,0 C 65 % 90 % 0 % 1017,6 hPa 0,0 l/m 0,0 km/h (0 Bft) 0 min 0 min 0,0 km/h (0 Bft)
09.09.2010 22:54 20,0 C 14,3 C 0,1 UV-I 0,0 C 65 % 90 % 0 % 1017,6 hPa 0,0 l/m 0,4 km/h (0 Bft) 0 min 0 min 0,0 km/h (0 Bft)
09.09.2010 22:56 20,0 C 14,4 C 0,1 UV-I 0,0 C 65 % 90 % 0 % 1017,6 hPa 0,0 l/m 0,0 km/h (0 Bft) 0 min 0 min 0,0 km/h (0 Bft)
09.09.2010 22:58 20,0 C 14,4 C 0,1 UV-I 0,0 C 65 % 91 % 0 % 1017,6 hPa 0,0 l/m 0,4 km/h (0 Bft) 0 min 0 min 0,0 km/h (0 Bft)
09.09.2010 23:00 20,0 C 14,5 C 0,1 UV-I 0,0 C 65 % 91 % 0 % 1017,6 hPa 0,0 l/m 0,4 km/h (0 Bft) 0 min 0 min 0,0 km/h (0 Bft)
09.09.2010 23:02 20,0 C 14,5 C 0,1 UV-I 0,0 C 65 % 91 % 0 % 1017,6 hPa 0,0 l/m 0,4 km/h (0 Bft) 0 min 0 min 0,0 km/h (0 Bft)
09.09.2010 23:04 19,9 C 14,4 C 0,1 UV-I 0,0 C 65 % 91 % 0 % 1017,6 hPa 0,0 l/m 0,4 km/h (0 Bft) 0 min 0 min 0,0 km/h (0 Bft)
09.09.2010 23:06 19,9 C 14,4 C 0,1 UV-I 0,0 C 65 % 91 % 0 % 1017,7 hPa 0,0 l/m 0,4 km/h (0 Bft) 0 min 0 min 3,2 km/h (1 Bft)
09.09.2010 23:08 19,9 C 14,4 C 0,1 UV-I 0,0 C 65 % 91 % 0 % 1017,7 hPa 0,0 l/m 0,4 km/h (0 Bft) 0 min 0 min 3,2 km/h (1 Bft)
09.09.2010 23:10 19,9 C 14,5 C 0,1 UV-I 0,0 C 65 % 91 % 0 % 1017,7 hPa 0,0 l/m 0,4 km/h (0 Bft) 0 min 0 min 0,0 km/h (0 Bft)
09.09.2010 23:12 19,9 C 14,5 C 0,1 UV-I 0,0 C 65 % 91 % 0 % 1017,7 hPa 0,0 l/m 0,8 km/h (0 Bft) 0 min 0 min 0,0 km/h (0 Bft)
09.09.2010 23:14 19,9 C 14,5 C 0,1 UV-I 0,0 C 65 % 91 % 0 % 1017,7 hPa 0,0 l/m 0,8 km/h (0 Bft) 0 min 0 min 6,4 km/h (2 Bft)
09.09.2010 23:16 19,9 C 14,5 C 0,1 UV-I 0,0 C 65 % 91 % 0 % 1017,7 hPa 0,0 l/m 0,8 km/h (0 Bft) 0 min 0 min 0,0 km/h (0 Bft)
09.09.2010 23:18 19,9 C 14,6 C 0,1 UV-I 0,0 C 65 % 91 % 0 % 1017,7 hPa 0,0 l/m 0,8 km/h (0 Bft) 0 min 0 min 0,0 km/h (0 Bft)
09.09.2010 23:20 19,9 C 14,5 C 0,1 UV-I 0,0 C 65 % 91 % 0 % 1017,7 hPa 0,0 l/m 1,2 km/h (1 Bft) 0 min 0 min 5,1 km/h (1 Bft)
09.09.2010 23:22 19,9 C 14,7 C 0,1 UV-I 0,0 C 65 % 91 % 0 % 1017,7 hPa 0,0 l/m 0,8 km/h (0 Bft) 0 min 0 min 5,1 km/h (1 Bft)
09.09.2010 23:24 19,9 C 14,7 C 0,1 UV-I 0,0 C 65 % 91 % 0 % 1017,7 hPa 0,0 l/m 0,8 km/h (0 Bft) 0 min 0 min 3,5 km/h (1 Bft)
09.09.2010 23:26 19,9 C 14,7 C 0,1 UV-I 0,0 C 65 % 91 % 0 % 1017,5 hPa 0,0 l/m 0,8 km/h (0 Bft) 0 min 0 min 3,5 km/h (1 Bft)
09.09.2010 23:28 19,9 C 14,7 C 0,1 UV-I 0,0 C 65 % 91 % 0 % 1017,5 hPa 0,0 l/m 1,2 km/h (1 Bft) 0 min 0 min 3,5 km/h (1 Bft)
09.09.2010 23:30 19,9 C 14,6 C 0,1 UV-I 0,0 C 65 % 91 % 0 % 1017,5 hPa 0,0 l/m 1,2 km/h (1 Bft) 0 min 0 min 0,0 km/h (0 Bft)
09.09.2010 23:32 19,9 C 14,6 C 0,1 UV-I 0,0 C 65 % 91 % 0 % 1017,5 hPa 0,0 l/m 1,2 km/h (1 Bft) 0 min 0 min 3,5 km/h (1 Bft)
09.09.2010 23:34 19,9 C 14,7 C 0,1 UV-I 0,0 C 65 % 91 % 0 % 1017,5 hPa 0,0 l/m 1,2 km/h (1 Bft) 0 min 0 min 3,5 km/h (1 Bft)
09.09.2010 23:36 19,8 C 14,7 C 0,1 UV-I 0,0 C 66 % 91 % 0 % 1017,5 hPa 0,0 l/m 0,8 km/h (0 Bft) 0 min 0 min 0,0 km/h (0 Bft)
09.09.2010 23:38 19,9 C 14,7 C 0,1 UV-I 0,0 C 66 % 91 % 0 % 1017,5 hPa 0,0 l/m 0,4 km/h (0 Bft) 0 min 0 min 0,0 km/h (0 Bft)
09.09.2010 23:40 19,9 C 14,7 C 0,1 UV-I 0,0 C 66 % 91 % 0 % 1017,5 hPa 0,0 l/m 0,4 km/h (0 Bft) 0 min 0 min 0,0 km/h (0 Bft)
09.09.2010 23:42 19,8 C 14,7 C 0,1 UV-I 0,0 C 66 % 91 % 0 % 1017,5 hPa 0,0 l/m 0,8 km/h (0 Bft) 0 min 0 min 0,0 km/h (0 Bft)
09.09.2010 23:44 19,8 C 14,7 C 0,1 UV-I 0,0 C 66 % 91 % 0 % 1017,5 hPa 0,0 l/m 0,4 km/h (0 Bft) 0 min 0 min 0,0 km/h (0 Bft)
09.09.2010 23:46 19,8 C 14,8 C 0,1 UV-I 0,0 C 66 % 91 % 0 % 1017,8 hPa 0,0 l/m 0,4 km/h (0 Bft) 0 min 0 min 0,0 km/h (0 Bft)
09.09.2010 23:51 19,8 C 14,7 C 0,1 UV-I 0,0 C 66 % 91 % 0 % 1017,8 hPa 0,0 l/m 0,4 km/h (0 Bft) 0 min 0 min 0,0 km/h (0 Bft)
09.09.2010 23:53 19,8 C 14,7 C 0,1 UV-I 0,0 C 66 % 91 % 0 % 1017,8 hPa 0,0 l/m 0,4 km/h (0 Bft) 0 min 0 min 0,0 km/h (0 Bft)
09.09.2010 23:56 19,8 C 14,8 C 0,1 UV-I 0,0 C 66 % 91 % 0 % 1017,8 hPa 0,0 l/m 0,8 km/h (0 Bft) 0 min 0 min 3,9 km/h (1 Bft)
09.09.2010 23:58 19,8 C 14,8 C 0,1 UV-I 0,0 C 66 % 91 % 0 % 1017,8 hPa 0,0 l/m 0,8 km/h (0 Bft) 0 min 0 min 3,9 km/h (1 Bft)
_ Min-Zeit 08:14 01:18 00:00 00:00 14:22 14:18 00:00 00:00 - 00:20 - - 00:00
Minimum _ 19,8 C 13,9 C 0,0 UV-I 0,0 C 62 % 74 % 0 % 1004,2 hPa - 0,0 km/h (0 Bft) - - 0,0 km/h (0 Bft)
_ Max-Zeit 15:06 14:02 14:04 13:56 09:26 07:46 13:20 22:06 14:30 13:36 13:18 06:00 13:42
Maximum _ 21,6 C 19,7 C 7,4 UV-I 5,6 C 67 % 94 % 100 % 1017,8 hPa 1,1 l/m 8,0 km/h
S (2 Bft)
2 min 2 min 23,2 km/h
SO (4 Bft)
Durchschnitt _ 20,4 C 15,7 C 1,0 UV-I 0,6 C 64 % 88 % 16 % 1011,7 hPa #6,1 l/m 2,1 km/h (1 Bft) #1:46 h #1:58 h 3,8 km/h (1 Bft)
© 2012 W. Hausmann